<?xml version="1.0" encoding="UTF-8" standalone="no" ?>
<gpx xmlns="http://www.topografix.com/GPX/1/1" creator="CompeGPS" version="1.1" xmlns:xsi="http://www.w3.org/2001/XMLSchema-instance" xsi:schemaLocation="http://www.topografix.com/GPX/1/1 http://www.topografix.com/GPX/1/1/gpx.xsd http://www.garmin.com/xmlschemas/GpxExtensions/v3 http://www.garmin.com/xmlschemas/GpxExtensionsv3.xsd http://www.garmin.com/xmlschemas/TrackPointExtension/v1 http://www.garmin.com/xmlschemas/TrackPointExtensionv1.xsd" xmlns:gpxtpx="http://www.garmin.com/xmlschemas/TrackPointExtension/v1">
  <metadata>
    <link href="http://www.compegps.com">
      <text>CompeGPS TEAM, SL</text>
    </link>
    <time>2018-11-12T21:12:58Z</time>
    <bounds maxlat="42.863086" maxlon="0.791924" minlat="42.836339" minlon="0.750157"/>
  </metadata>
<wpt lat="42.863086" lon="0.750592">
<ele>570</ele>
<name>Parking </name>
</wpt>
<wpt lat="42.861089" lon="0.750421">
<ele>580</ele>
<name>Pont de Roueu</name>
</wpt>
<wpt lat="42.850877" lon="0.755119">
<ele>1110</ele>
<name>Ruisseau Goute Mont Caubech</name>
</wpt>
<wpt lat="42.846900" lon="0.750361">
<ele>1430</ele>
<name>Pas de Trentenade</name>
</wpt>
<wpt lat="42.842807" lon="0.761558">
<ele>1652</ele>
<name>Tuc de la Goute</name>
</wpt>
<wpt lat="42.838462" lon="0.772305">
<ele>1723</ele>
<name>Tuc des Pans</name>
</wpt>
<wpt lat="42.836387" lon="0.786176">
<ele>1736</ele>
<name>Col</name>
</wpt>
<wpt lat="42.842163" lon="0.791917">
<ele>1660</ele>
<name>Cabane Courrau Grand</name>
</wpt>
<wpt lat="42.842734" lon="0.784153">
<ele>1482</ele>
<name>Cabane Salontere</name>
</wpt>
<wpt lat="42.849508" lon="0.774513">
<ele>1160</ele>
<name>Cabane Courrau Artigue</name>
</wpt>
<trk>
    <name>tuc-des-pans</name>
    <userMyTwoNav></userMyTwoNav>
    <serialNumber></serialNumber>
    <trkseg>
      <trkpt lat="42.863086" lon="0.750592">
        <ele>567.0</ele>
        <time>2018-11-11T08:44:53Z</time>
        <name>Parking </name>
      </trkpt>
      <trkpt lat="42.863003" lon="0.750624">
        <ele>568.8</ele>
        <time>2018-11-11T08:45:55Z</time>
      </trkpt>
      <trkpt lat="42.862890" lon="0.750685">
        <ele>570.1</ele>
        <time>2018-11-11T08:46:08Z</time>
      </trkpt>
      <trkpt lat="42.862798" lon="0.750706">
        <ele>571.1</ele>
        <time>2018-11-11T08:46:19Z</time>
      </trkpt>
      <trkpt lat="42.862687" lon="0.750786">
        <ele>571.9</ele>
        <time>2018-11-11T08:46:31Z</time>
      </trkpt>
      <trkpt lat="42.862581" lon="0.750817">
        <ele>573.3</ele>
        <time>2018-11-11T08:46:42Z</time>
      </trkpt>
      <trkpt lat="42.862479" lon="0.750847">
        <ele>574.2</ele>
        <time>2018-11-11T08:46:54Z</time>
      </trkpt>
      <trkpt lat="42.862384" lon="0.750881">
        <ele>575.6</ele>
        <time>2018-11-11T08:47:07Z</time>
      </trkpt>
      <trkpt lat="42.862264" lon="0.750910">
        <ele>576.6</ele>
        <time>2018-11-11T08:47:20Z</time>
      </trkpt>
      <trkpt lat="42.862149" lon="0.750909">
        <ele>577.5</ele>
        <time>2018-11-11T08:47:31Z</time>
      </trkpt>
      <trkpt lat="42.862030" lon="0.750909">
        <ele>578.1</ele>
        <time>2018-11-11T08:47:44Z</time>
      </trkpt>
      <trkpt lat="42.861891" lon="0.750838">
        <ele>579.5</ele>
        <time>2018-11-11T08:47:57Z</time>
      </trkpt>
      <trkpt lat="42.861803" lon="0.750702">
        <ele>581.1</ele>
        <time>2018-11-11T08:48:09Z</time>
      </trkpt>
      <trkpt lat="42.861718" lon="0.750592">
        <ele>582.5</ele>
        <time>2018-11-11T08:48:22Z</time>
      </trkpt>
      <trkpt lat="42.861605" lon="0.750523">
        <ele>584.0</ele>
        <time>2018-11-11T08:48:37Z</time>
      </trkpt>
      <trkpt lat="42.861472" lon="0.750473">
        <ele>585.1</ele>
        <time>2018-11-11T08:48:50Z</time>
      </trkpt>
      <trkpt lat="42.861342" lon="0.750400">
        <ele>585.9</ele>
        <time>2018-11-11T08:49:03Z</time>
      </trkpt>
      <trkpt lat="42.861221" lon="0.750366">
        <ele>586.5</ele>
        <time>2018-11-11T08:49:16Z</time>
      </trkpt>
      <trkpt lat="42.861089" lon="0.750421">
        <ele>587.2</ele>
        <time>2018-11-11T08:49:30Z</time>
        <name>Pont de Roueu</name>
      </trkpt>
      <trkpt lat="42.860965" lon="0.750385">
        <ele>587.6</ele>
        <time>2018-11-11T08:49:41Z</time>
      </trkpt>
      <trkpt lat="42.860848" lon="0.750333">
        <ele>588.4</ele>
        <time>2018-11-11T08:49:53Z</time>
      </trkpt>
      <trkpt lat="42.860735" lon="0.750266">
        <ele>589.5</ele>
        <time>2018-11-11T08:50:10Z</time>
      </trkpt>
      <trkpt lat="42.860632" lon="0.750285">
        <ele>591.4</ele>
        <time>2018-11-11T08:50:27Z</time>
      </trkpt>
      <trkpt lat="42.860509" lon="0.750302">
        <ele>595.0</ele>
        <time>2018-11-11T08:50:49Z</time>
      </trkpt>
      <trkpt lat="42.860422" lon="0.750239">
        <ele>597.7</ele>
        <time>2018-11-11T08:51:08Z</time>
      </trkpt>
      <trkpt lat="42.860348" lon="0.750165">
        <ele>601.4</ele>
        <time>2018-11-11T08:51:32Z</time>
      </trkpt>
      <trkpt lat="42.860223" lon="0.750157">
        <ele>605.5</ele>
        <time>2018-11-11T08:51:55Z</time>
      </trkpt>
      <trkpt lat="42.860113" lon="0.750211">
        <ele>608.4</ele>
        <time>2018-11-11T08:52:17Z</time>
      </trkpt>
      <trkpt lat="42.860117" lon="0.750317">
        <ele>610.7</ele>
        <time>2018-11-11T08:52:37Z</time>
      </trkpt>
      <trkpt lat="42.860140" lon="0.750457">
        <ele>614.5</ele>
        <time>2018-11-11T08:53:00Z</time>
      </trkpt>
      <trkpt lat="42.860146" lon="0.750589">
        <ele>617.9</ele>
        <time>2018-11-11T08:53:20Z</time>
      </trkpt>
      <trkpt lat="42.860175" lon="0.750707">
        <ele>621.2</ele>
        <time>2018-11-11T08:53:40Z</time>
      </trkpt>
      <trkpt lat="42.860188" lon="0.750827">
        <ele>624.3</ele>
        <time>2018-11-11T08:54:01Z</time>
      </trkpt>
      <trkpt lat="42.860218" lon="0.750925">
        <ele>627.8</ele>
        <time>2018-11-11T08:54:23Z</time>
      </trkpt>
      <trkpt lat="42.860226" lon="0.751052">
        <ele>631.1</ele>
        <time>2018-11-11T08:54:47Z</time>
      </trkpt>
      <trkpt lat="42.860149" lon="0.751168">
        <ele>633.9</ele>
        <time>2018-11-11T08:55:05Z</time>
      </trkpt>
      <trkpt lat="42.860103" lon="0.751300">
        <ele>636.6</ele>
        <time>2018-11-11T08:55:22Z</time>
      </trkpt>
      <trkpt lat="42.860009" lon="0.751370">
        <ele>640.4</ele>
        <time>2018-11-11T08:55:44Z</time>
      </trkpt>
      <trkpt lat="42.859981" lon="0.751325">
        <ele>641.3</ele>
        <time>2018-11-11T08:57:04Z</time>
      </trkpt>
      <trkpt lat="42.860010" lon="0.751279">
        <ele>641.7</ele>
        <time>2018-11-11T08:57:32Z</time>
      </trkpt>
      <trkpt lat="42.859942" lon="0.751326">
        <ele>642.9</ele>
        <time>2018-11-11T08:58:32Z</time>
      </trkpt>
      <trkpt lat="42.859851" lon="0.751398">
        <ele>645.6</ele>
        <time>2018-11-11T08:58:52Z</time>
      </trkpt>
      <trkpt lat="42.859787" lon="0.751477">
        <ele>648.9</ele>
        <time>2018-11-11T08:59:13Z</time>
      </trkpt>
      <trkpt lat="42.859693" lon="0.751598">
        <ele>650.6</ele>
        <time>2018-11-11T08:59:28Z</time>
      </trkpt>
      <trkpt lat="42.859627" lon="0.751710">
        <ele>652.3</ele>
        <time>2018-11-11T08:59:43Z</time>
      </trkpt>
      <trkpt lat="42.859557" lon="0.751812">
        <ele>653.7</ele>
        <time>2018-11-11T08:59:57Z</time>
      </trkpt>
      <trkpt lat="42.859507" lon="0.751912">
        <ele>656.6</ele>
        <time>2018-11-11T09:00:18Z</time>
      </trkpt>
      <trkpt lat="42.859442" lon="0.752009">
        <ele>659.3</ele>
        <time>2018-11-11T09:00:36Z</time>
      </trkpt>
      <trkpt lat="42.859384" lon="0.752085">
        <ele>661.7</ele>
        <time>2018-11-11T09:00:54Z</time>
      </trkpt>
      <trkpt lat="42.859312" lon="0.752169">
        <ele>664.8</ele>
        <time>2018-11-11T09:01:13Z</time>
      </trkpt>
      <trkpt lat="42.859287" lon="0.752233">
        <ele>667.5</ele>
        <time>2018-11-11T09:01:32Z</time>
      </trkpt>
      <trkpt lat="42.859205" lon="0.752344">
        <ele>670.7</ele>
        <time>2018-11-11T09:01:51Z</time>
      </trkpt>
      <trkpt lat="42.859181" lon="0.752458">
        <ele>675.3</ele>
        <time>2018-11-11T09:02:18Z</time>
      </trkpt>
      <trkpt lat="42.859111" lon="0.752547">
        <ele>679.4</ele>
        <time>2018-11-11T09:02:42Z</time>
      </trkpt>
      <trkpt lat="42.859056" lon="0.752609">
        <ele>683.2</ele>
        <time>2018-11-11T09:03:04Z</time>
      </trkpt>
      <trkpt lat="42.858983" lon="0.752739">
        <ele>686.9</ele>
        <time>2018-11-11T09:03:28Z</time>
      </trkpt>
      <trkpt lat="42.858871" lon="0.752796">
        <ele>690.5</ele>
        <time>2018-11-11T09:03:53Z</time>
      </trkpt>
      <trkpt lat="42.858784" lon="0.752837">
        <ele>693.9</ele>
        <time>2018-11-11T09:04:14Z</time>
      </trkpt>
      <trkpt lat="42.858710" lon="0.752884">
        <ele>696.2</ele>
        <time>2018-11-11T09:04:42Z</time>
      </trkpt>
      <trkpt lat="42.858650" lon="0.752975">
        <ele>698.2</ele>
        <time>2018-11-11T09:05:02Z</time>
      </trkpt>
      <trkpt lat="42.858559" lon="0.753097">
        <ele>700.8</ele>
        <time>2018-11-11T09:05:22Z</time>
      </trkpt>
      <trkpt lat="42.858489" lon="0.753205">
        <ele>703.5</ele>
        <time>2018-11-11T09:05:43Z</time>
      </trkpt>
      <trkpt lat="42.858393" lon="0.753311">
        <ele>705.8</ele>
        <time>2018-11-11T09:06:05Z</time>
      </trkpt>
      <trkpt lat="42.858314" lon="0.753402">
        <ele>709.4</ele>
        <time>2018-11-11T09:06:32Z</time>
      </trkpt>
      <trkpt lat="42.858222" lon="0.753477">
        <ele>712.6</ele>
        <time>2018-11-11T09:06:51Z</time>
      </trkpt>
      <trkpt lat="42.858098" lon="0.753588">
        <ele>715.7</ele>
        <time>2018-11-11T09:07:12Z</time>
      </trkpt>
      <trkpt lat="42.858029" lon="0.753683">
        <ele>717.0</ele>
        <time>2018-11-11T09:07:30Z</time>
      </trkpt>
      <trkpt lat="42.858009" lon="0.753712">
        <ele>717.1</ele>
        <time>2018-11-11T09:07:55Z</time>
      </trkpt>
      <trkpt lat="42.858032" lon="0.753625">
        <ele>717.4</ele>
        <time>2018-11-11T09:08:36Z</time>
      </trkpt>
      <trkpt lat="42.858039" lon="0.753584">
        <ele>715.6</ele>
        <time>2018-11-11T09:09:10Z</time>
      </trkpt>
      <trkpt lat="42.857968" lon="0.753666">
        <ele>718.0</ele>
        <time>2018-11-11T09:09:30Z</time>
      </trkpt>
      <trkpt lat="42.857852" lon="0.753704">
        <ele>719.7</ele>
        <time>2018-11-11T09:09:45Z</time>
      </trkpt>
      <trkpt lat="42.857737" lon="0.753738">
        <ele>721.0</ele>
        <time>2018-11-11T09:09:59Z</time>
      </trkpt>
      <trkpt lat="42.857629" lon="0.753845">
        <ele>722.9</ele>
        <time>2018-11-11T09:10:18Z</time>
      </trkpt>
      <trkpt lat="42.857588" lon="0.753974">
        <ele>724.6</ele>
        <time>2018-11-11T09:10:36Z</time>
      </trkpt>
      <trkpt lat="42.857551" lon="0.754096">
        <ele>726.7</ele>
        <time>2018-11-11T09:10:57Z</time>
      </trkpt>
      <trkpt lat="42.857510" lon="0.754254">
        <ele>729.6</ele>
        <time>2018-11-11T09:11:18Z</time>
      </trkpt>
      <trkpt lat="42.857484" lon="0.754393">
        <ele>732.5</ele>
        <time>2018-11-11T09:11:36Z</time>
      </trkpt>
      <trkpt lat="42.857432" lon="0.754516">
        <ele>735.1</ele>
        <time>2018-11-11T09:11:55Z</time>
      </trkpt>
      <trkpt lat="42.857382" lon="0.754626">
        <ele>737.6</ele>
        <time>2018-11-11T09:12:15Z</time>
      </trkpt>
      <trkpt lat="42.857316" lon="0.754743">
        <ele>740.0</ele>
        <time>2018-11-11T09:12:32Z</time>
      </trkpt>
      <trkpt lat="42.857229" lon="0.754834">
        <ele>742.9</ele>
        <time>2018-11-11T09:12:51Z</time>
      </trkpt>
      <trkpt lat="42.857128" lon="0.754888">
        <ele>745.3</ele>
        <time>2018-11-11T09:13:09Z</time>
      </trkpt>
      <trkpt lat="42.857047" lon="0.754969">
        <ele>747.9</ele>
        <time>2018-11-11T09:13:26Z</time>
      </trkpt>
      <trkpt lat="42.856988" lon="0.755068">
        <ele>750.2</ele>
        <time>2018-11-11T09:13:42Z</time>
      </trkpt>
      <trkpt lat="42.856937" lon="0.755171">
        <ele>753.6</ele>
        <time>2018-11-11T09:14:03Z</time>
      </trkpt>
      <trkpt lat="42.856891" lon="0.755319">
        <ele>756.2</ele>
        <time>2018-11-11T09:14:23Z</time>
      </trkpt>
      <trkpt lat="42.856839" lon="0.755384">
        <ele>758.9</ele>
        <time>2018-11-11T09:14:40Z</time>
      </trkpt>
      <trkpt lat="42.856861" lon="0.755473">
        <ele>760.9</ele>
        <time>2018-11-11T09:14:57Z</time>
      </trkpt>
      <trkpt lat="42.856864" lon="0.755585">
        <ele>762.9</ele>
        <time>2018-11-11T09:15:15Z</time>
      </trkpt>
      <trkpt lat="42.856802" lon="0.755731">
        <ele>765.9</ele>
        <time>2018-11-11T09:15:35Z</time>
      </trkpt>
      <trkpt lat="42.856731" lon="0.755843">
        <ele>768.9</ele>
        <time>2018-11-11T09:15:57Z</time>
      </trkpt>
      <trkpt lat="42.856655" lon="0.755947">
        <ele>771.8</ele>
        <time>2018-11-11T09:16:18Z</time>
      </trkpt>
      <trkpt lat="42.856577" lon="0.756029">
        <ele>774.0</ele>
        <time>2018-11-11T09:16:33Z</time>
      </trkpt>
      <trkpt lat="42.856546" lon="0.756083">
        <ele>776.7</ele>
        <time>2018-11-11T09:16:48Z</time>
      </trkpt>
      <trkpt lat="42.856478" lon="0.756131">
        <ele>778.6</ele>
        <time>2018-11-11T09:17:03Z</time>
      </trkpt>
      <trkpt lat="42.856334" lon="0.756228">
        <ele>781.5</ele>
        <time>2018-11-11T09:17:20Z</time>
      </trkpt>
      <trkpt lat="42.856241" lon="0.756264">
        <ele>784.8</ele>
        <time>2018-11-11T09:17:39Z</time>
      </trkpt>
      <trkpt lat="42.856156" lon="0.756340">
        <ele>788.1</ele>
        <time>2018-11-11T09:17:58Z</time>
      </trkpt>
      <trkpt lat="42.856065" lon="0.756419">
        <ele>790.5</ele>
        <time>2018-11-11T09:18:16Z</time>
      </trkpt>
      <trkpt lat="42.856030" lon="0.756489">
        <ele>791.6</ele>
        <time>2018-11-11T09:18:37Z</time>
      </trkpt>
      <trkpt lat="42.856055" lon="0.756405">
        <ele>791.3</ele>
        <time>2018-11-11T09:18:54Z</time>
      </trkpt>
      <trkpt lat="42.856014" lon="0.756442">
        <ele>791.2</ele>
        <time>2018-11-11T09:19:17Z</time>
      </trkpt>
      <trkpt lat="42.855927" lon="0.756528">
        <ele>791.0</ele>
        <time>2018-11-11T09:19:34Z</time>
      </trkpt>
      <trkpt lat="42.856000" lon="0.756620">
        <ele>792.4</ele>
        <time>2018-11-11T09:19:51Z</time>
      </trkpt>
      <trkpt lat="42.856049" lon="0.756735">
        <ele>795.7</ele>
        <time>2018-11-11T09:20:10Z</time>
      </trkpt>
      <trkpt lat="42.855986" lon="0.756833">
        <ele>798.0</ele>
        <time>2018-11-11T09:20:26Z</time>
      </trkpt>
      <trkpt lat="42.855966" lon="0.756940">
        <ele>800.8</ele>
        <time>2018-11-11T09:20:42Z</time>
      </trkpt>
      <trkpt lat="42.855943" lon="0.757079">
        <ele>802.3</ele>
        <time>2018-11-11T09:21:02Z</time>
      </trkpt>
      <trkpt lat="42.855900" lon="0.757155">
        <ele>803.0</ele>
        <time>2018-11-11T09:21:29Z</time>
      </trkpt>
      <trkpt lat="42.855899" lon="0.757256">
        <ele>805.6</ele>
        <time>2018-11-11T09:21:50Z</time>
      </trkpt>
      <trkpt lat="42.855838" lon="0.757310">
        <ele>808.2</ele>
        <time>2018-11-11T09:22:05Z</time>
      </trkpt>
      <trkpt lat="42.855831" lon="0.757436">
        <ele>809.8</ele>
        <time>2018-11-11T09:22:22Z</time>
      </trkpt>
      <trkpt lat="42.855857" lon="0.757556">
        <ele>811.1</ele>
        <time>2018-11-11T09:22:41Z</time>
      </trkpt>
      <trkpt lat="42.855833" lon="0.757715">
        <ele>813.5</ele>
        <time>2018-11-11T09:23:01Z</time>
      </trkpt>
      <trkpt lat="42.855825" lon="0.757833">
        <ele>816.6</ele>
        <time>2018-11-11T09:23:20Z</time>
      </trkpt>
      <trkpt lat="42.855803" lon="0.757962">
        <ele>819.0</ele>
        <time>2018-11-11T09:23:38Z</time>
      </trkpt>
      <trkpt lat="42.855772" lon="0.758070">
        <ele>821.1</ele>
        <time>2018-11-11T09:23:55Z</time>
      </trkpt>
      <trkpt lat="42.855754" lon="0.758161">
        <ele>824.3</ele>
        <time>2018-11-11T09:24:15Z</time>
      </trkpt>
      <trkpt lat="42.855711" lon="0.758304">
        <ele>827.2</ele>
        <time>2018-11-11T09:24:32Z</time>
      </trkpt>
      <trkpt lat="42.855678" lon="0.758394">
        <ele>830.2</ele>
        <time>2018-11-11T09:24:48Z</time>
      </trkpt>
      <trkpt lat="42.855663" lon="0.758517">
        <ele>833.3</ele>
        <time>2018-11-11T09:25:08Z</time>
      </trkpt>
      <trkpt lat="42.855636" lon="0.758646">
        <ele>836.9</ele>
        <time>2018-11-11T09:25:30Z</time>
      </trkpt>
      <trkpt lat="42.855578" lon="0.758738">
        <ele>840.4</ele>
        <time>2018-11-11T09:25:47Z</time>
      </trkpt>
      <trkpt lat="42.855485" lon="0.758752">
        <ele>844.2</ele>
        <time>2018-11-11T09:26:07Z</time>
      </trkpt>
      <trkpt lat="42.855381" lon="0.758764">
        <ele>847.1</ele>
        <time>2018-11-11T09:26:26Z</time>
      </trkpt>
      <trkpt lat="42.855303" lon="0.758687">
        <ele>851.2</ele>
        <time>2018-11-11T09:26:51Z</time>
      </trkpt>
      <trkpt lat="42.855220" lon="0.758695">
        <ele>853.8</ele>
        <time>2018-11-11T09:27:09Z</time>
      </trkpt>
      <trkpt lat="42.855225" lon="0.758796">
        <ele>857.8</ele>
        <time>2018-11-11T09:27:30Z</time>
      </trkpt>
      <trkpt lat="42.855200" lon="0.758921">
        <ele>860.5</ele>
        <time>2018-11-11T09:27:48Z</time>
      </trkpt>
      <trkpt lat="42.855125" lon="0.759014">
        <ele>864.7</ele>
        <time>2018-11-11T09:28:12Z</time>
      </trkpt>
      <trkpt lat="42.855041" lon="0.759076">
        <ele>867.0</ele>
        <time>2018-11-11T09:28:33Z</time>
      </trkpt>
      <trkpt lat="42.854975" lon="0.759063">
        <ele>867.6</ele>
        <time>2018-11-11T09:29:08Z</time>
      </trkpt>
      <trkpt lat="42.854792" lon="0.759022">
        <ele>858.3</ele>
        <time>2018-11-11T09:30:23Z</time>
      </trkpt>
      <trkpt lat="42.854601" lon="0.758957">
        <ele>870.2</ele>
        <time>2018-11-11T09:31:01Z</time>
      </trkpt>
      <trkpt lat="42.854429" lon="0.758866">
        <ele>881.3</ele>
        <time>2018-11-11T09:31:32Z</time>
      </trkpt>
      <trkpt lat="42.854264" lon="0.758851">
        <ele>891.1</ele>
        <time>2018-11-11T09:32:52Z</time>
      </trkpt>
      <trkpt lat="42.854153" lon="0.758753">
        <ele>901.6</ele>
        <time>2018-11-11T09:33:44Z</time>
      </trkpt>
      <trkpt lat="42.854102" lon="0.758687">
        <ele>903.7</ele>
        <time>2018-11-11T09:34:30Z</time>
      </trkpt>
      <trkpt lat="42.854025" lon="0.758559">
        <ele>906.9</ele>
        <time>2018-11-11T09:34:50Z</time>
      </trkpt>
      <trkpt lat="42.853948" lon="0.758525">
        <ele>910.6</ele>
        <time>2018-11-11T09:35:15Z</time>
      </trkpt>
      <trkpt lat="42.853811" lon="0.758565">
        <ele>913.1</ele>
        <time>2018-11-11T09:35:28Z</time>
      </trkpt>
      <trkpt lat="42.853697" lon="0.758582">
        <ele>916.3</ele>
        <time>2018-11-11T09:35:48Z</time>
      </trkpt>
      <trkpt lat="42.853627" lon="0.758587">
        <ele>918.9</ele>
        <time>2018-11-11T09:36:07Z</time>
      </trkpt>
      <trkpt lat="42.853569" lon="0.758626">
        <ele>921.7</ele>
        <time>2018-11-11T09:36:27Z</time>
      </trkpt>
      <trkpt lat="42.853471" lon="0.758667">
        <ele>926.6</ele>
        <time>2018-11-11T09:36:58Z</time>
      </trkpt>
      <trkpt lat="42.853346" lon="0.758549">
        <ele>933.7</ele>
        <time>2018-11-11T09:37:45Z</time>
      </trkpt>
      <trkpt lat="42.853278" lon="0.758565">
        <ele>937.1</ele>
        <time>2018-11-11T09:38:06Z</time>
      </trkpt>
      <trkpt lat="42.853211" lon="0.758598">
        <ele>939.6</ele>
        <time>2018-11-11T09:38:29Z</time>
      </trkpt>
      <trkpt lat="42.853124" lon="0.758668">
        <ele>943.4</ele>
        <time>2018-11-11T09:38:49Z</time>
      </trkpt>
      <trkpt lat="42.853037" lon="0.758728">
        <ele>946.2</ele>
        <time>2018-11-11T09:39:09Z</time>
      </trkpt>
      <trkpt lat="42.852968" lon="0.758787">
        <ele>950.1</ele>
        <time>2018-11-11T09:39:32Z</time>
      </trkpt>
      <trkpt lat="42.852898" lon="0.758862">
        <ele>953.8</ele>
        <time>2018-11-11T09:39:54Z</time>
      </trkpt>
      <trkpt lat="42.852805" lon="0.758925">
        <ele>956.3</ele>
        <time>2018-11-11T09:40:12Z</time>
      </trkpt>
      <trkpt lat="42.852743" lon="0.759005">
        <ele>959.1</ele>
        <time>2018-11-11T09:40:34Z</time>
      </trkpt>
      <trkpt lat="42.852647" lon="0.759083">
        <ele>961.7</ele>
        <time>2018-11-11T09:40:52Z</time>
      </trkpt>
      <trkpt lat="42.852596" lon="0.759186">
        <ele>963.7</ele>
        <time>2018-11-11T09:41:07Z</time>
      </trkpt>
      <trkpt lat="42.852525" lon="0.759286">
        <ele>967.3</ele>
        <time>2018-11-11T09:41:29Z</time>
      </trkpt>
      <trkpt lat="42.852487" lon="0.759254">
        <ele>973.3</ele>
        <time>2018-11-11T09:44:06Z</time>
      </trkpt>
      <trkpt lat="42.852448" lon="0.759107">
        <ele>976.5</ele>
        <time>2018-11-11T09:44:27Z</time>
      </trkpt>
      <trkpt lat="42.852387" lon="0.759027">
        <ele>978.8</ele>
        <time>2018-11-11T09:44:46Z</time>
      </trkpt>
      <trkpt lat="42.852416" lon="0.758849">
        <ele>981.9</ele>
        <time>2018-11-11T09:45:06Z</time>
      </trkpt>
      <trkpt lat="42.852395" lon="0.758698">
        <ele>985.5</ele>
        <time>2018-11-11T09:45:26Z</time>
      </trkpt>
      <trkpt lat="42.852377" lon="0.758566">
        <ele>989.1</ele>
        <time>2018-11-11T09:45:46Z</time>
      </trkpt>
      <trkpt lat="42.852324" lon="0.758491">
        <ele>992.0</ele>
        <time>2018-11-11T09:46:07Z</time>
      </trkpt>
      <trkpt lat="42.852293" lon="0.758380">
        <ele>996.3</ele>
        <time>2018-11-11T09:46:32Z</time>
      </trkpt>
      <trkpt lat="42.852284" lon="0.758273">
        <ele>998.9</ele>
        <time>2018-11-11T09:46:49Z</time>
      </trkpt>
      <trkpt lat="42.852290" lon="0.758157">
        <ele>1002.0</ele>
        <time>2018-11-11T09:47:08Z</time>
      </trkpt>
      <trkpt lat="42.852248" lon="0.758022">
        <ele>1004.2</ele>
        <time>2018-11-11T09:47:24Z</time>
      </trkpt>
      <trkpt lat="42.852247" lon="0.757919">
        <ele>1008.6</ele>
        <time>2018-11-11T09:47:49Z</time>
      </trkpt>
      <trkpt lat="42.852221" lon="0.757818">
        <ele>1012.4</ele>
        <time>2018-11-11T09:48:13Z</time>
      </trkpt>
      <trkpt lat="42.852163" lon="0.757741">
        <ele>1015.8</ele>
        <time>2018-11-11T09:48:33Z</time>
      </trkpt>
      <trkpt lat="42.852156" lon="0.757634">
        <ele>1018.6</ele>
        <time>2018-11-11T09:48:50Z</time>
      </trkpt>
      <trkpt lat="42.852092" lon="0.757519">
        <ele>1021.8</ele>
        <time>2018-11-11T09:49:09Z</time>
      </trkpt>
      <trkpt lat="42.852022" lon="0.757423">
        <ele>1025.3</ele>
        <time>2018-11-11T09:49:31Z</time>
      </trkpt>
      <trkpt lat="42.852012" lon="0.757296">
        <ele>1029.1</ele>
        <time>2018-11-11T09:49:52Z</time>
      </trkpt>
      <trkpt lat="42.851972" lon="0.757175">
        <ele>1033.2</ele>
        <time>2018-11-11T09:50:17Z</time>
      </trkpt>
      <trkpt lat="42.851943" lon="0.757063">
        <ele>1037.6</ele>
        <time>2018-11-11T09:50:41Z</time>
      </trkpt>
      <trkpt lat="42.851922" lon="0.756962">
        <ele>1041.7</ele>
        <time>2018-11-11T09:51:04Z</time>
      </trkpt>
      <trkpt lat="42.851921" lon="0.756841">
        <ele>1044.9</ele>
        <time>2018-11-11T09:51:25Z</time>
      </trkpt>
      <trkpt lat="42.851874" lon="0.756716">
        <ele>1048.9</ele>
        <time>2018-11-11T09:51:47Z</time>
      </trkpt>
      <trkpt lat="42.851838" lon="0.756614">
        <ele>1053.1</ele>
        <time>2018-11-11T09:52:09Z</time>
      </trkpt>
      <trkpt lat="42.851781" lon="0.756519">
        <ele>1056.9</ele>
        <time>2018-11-11T09:52:32Z</time>
      </trkpt>
      <trkpt lat="42.851759" lon="0.756405">
        <ele>1061.2</ele>
        <time>2018-11-11T09:52:58Z</time>
      </trkpt>
      <trkpt lat="42.851701" lon="0.756300">
        <ele>1064.7</ele>
        <time>2018-11-11T09:53:17Z</time>
      </trkpt>
      <trkpt lat="42.851613" lon="0.756245">
        <ele>1067.6</ele>
        <time>2018-11-11T09:53:35Z</time>
      </trkpt>
      <trkpt lat="42.851538" lon="0.756137">
        <ele>1070.4</ele>
        <time>2018-11-11T09:53:55Z</time>
      </trkpt>
      <trkpt lat="42.851487" lon="0.756039">
        <ele>1072.9</ele>
        <time>2018-11-11T09:54:12Z</time>
      </trkpt>
      <trkpt lat="42.851414" lon="0.755944">
        <ele>1076.5</ele>
        <time>2018-11-11T09:54:36Z</time>
      </trkpt>
      <trkpt lat="42.851331" lon="0.755819">
        <ele>1077.1</ele>
        <time>2018-11-11T09:54:53Z</time>
      </trkpt>
      <trkpt lat="42.851303" lon="0.755697">
        <ele>1076.8</ele>
        <time>2018-11-11T09:55:08Z</time>
      </trkpt>
      <trkpt lat="42.851242" lon="0.755561">
        <ele>1078.9</ele>
        <time>2018-11-11T09:55:27Z</time>
      </trkpt>
      <trkpt lat="42.851141" lon="0.755393">
        <ele>1080.7</ele>
        <time>2018-11-11T09:55:45Z</time>
      </trkpt>
      <trkpt lat="42.851085" lon="0.755258">
        <ele>1081.8</ele>
        <time>2018-11-11T09:56:00Z</time>
      </trkpt>
      <trkpt lat="42.850977" lon="0.755198">
        <ele>1082.7</ele>
        <time>2018-11-11T09:56:19Z</time>
      </trkpt>
      <trkpt lat="42.850877" lon="0.755119">
        <ele>1083.2</ele>
        <time>2018-11-11T09:56:33Z</time>
        <name>Ruisseau Goute Mont Caubech</name>
      </trkpt>
      <trkpt lat="42.850873" lon="0.754990">
        <ele>1083.9</ele>
        <time>2018-11-11T09:57:53Z</time>
      </trkpt>
      <trkpt lat="42.850936" lon="0.754906">
        <ele>1084.2</ele>
        <time>2018-11-11T09:58:13Z</time>
      </trkpt>
      <trkpt lat="42.850985" lon="0.754837">
        <ele>1086.3</ele>
        <time>2018-11-11T09:58:53Z</time>
      </trkpt>
      <trkpt lat="42.851052" lon="0.754718">
        <ele>1089.4</ele>
        <time>2018-11-11T09:59:12Z</time>
      </trkpt>
      <trkpt lat="42.851075" lon="0.754575">
        <ele>1093.7</ele>
        <time>2018-11-11T09:59:35Z</time>
      </trkpt>
      <trkpt lat="42.851057" lon="0.754455">
        <ele>1097.0</ele>
        <time>2018-11-11T09:59:56Z</time>
      </trkpt>
      <trkpt lat="42.851100" lon="0.754357">
        <ele>1098.8</ele>
        <time>2018-11-11T10:00:16Z</time>
      </trkpt>
      <trkpt lat="42.851194" lon="0.754296">
        <ele>1102.4</ele>
        <time>2018-11-11T10:00:39Z</time>
      </trkpt>
      <trkpt lat="42.851220" lon="0.754178">
        <ele>1105.2</ele>
        <time>2018-11-11T10:00:58Z</time>
      </trkpt>
      <trkpt lat="42.851290" lon="0.754056">
        <ele>1108.6</ele>
        <time>2018-11-11T10:01:21Z</time>
      </trkpt>
      <trkpt lat="42.851330" lon="0.753887">
        <ele>1111.2</ele>
        <time>2018-11-11T10:01:39Z</time>
      </trkpt>
      <trkpt lat="42.851381" lon="0.753728">
        <ele>1112.7</ele>
        <time>2018-11-11T10:01:55Z</time>
      </trkpt>
      <trkpt lat="42.851413" lon="0.753582">
        <ele>1114.6</ele>
        <time>2018-11-11T10:02:13Z</time>
      </trkpt>
      <trkpt lat="42.851497" lon="0.753447">
        <ele>1117.7</ele>
        <time>2018-11-11T10:02:31Z</time>
      </trkpt>
      <trkpt lat="42.851471" lon="0.753395">
        <ele>1121.6</ele>
        <time>2018-11-11T10:02:51Z</time>
      </trkpt>
      <trkpt lat="42.851492" lon="0.753291">
        <ele>1123.9</ele>
        <time>2018-11-11T10:03:15Z</time>
      </trkpt>
      <trkpt lat="42.851540" lon="0.753147">
        <ele>1127.9</ele>
        <time>2018-11-11T10:04:07Z</time>
      </trkpt>
      <trkpt lat="42.851513" lon="0.752997">
        <ele>1130.3</ele>
        <time>2018-11-11T10:05:02Z</time>
      </trkpt>
      <trkpt lat="42.851500" lon="0.752889">
        <ele>1133.5</ele>
        <time>2018-11-11T10:05:22Z</time>
      </trkpt>
      <trkpt lat="42.851450" lon="0.752837">
        <ele>1137.6</ele>
        <time>2018-11-11T10:05:44Z</time>
      </trkpt>
      <trkpt lat="42.851466" lon="0.752725">
        <ele>1141.1</ele>
        <time>2018-11-11T10:06:02Z</time>
      </trkpt>
      <trkpt lat="42.851449" lon="0.752630">
        <ele>1145.7</ele>
        <time>2018-11-11T10:06:23Z</time>
      </trkpt>
      <trkpt lat="42.851376" lon="0.752577">
        <ele>1151.1</ele>
        <time>2018-11-11T10:06:45Z</time>
      </trkpt>
      <trkpt lat="42.851344" lon="0.752686">
        <ele>1152.7</ele>
        <time>2018-11-11T10:07:06Z</time>
      </trkpt>
      <trkpt lat="42.851299" lon="0.752773">
        <ele>1155.1</ele>
        <time>2018-11-11T10:07:26Z</time>
      </trkpt>
      <trkpt lat="42.851220" lon="0.752849">
        <ele>1158.5</ele>
        <time>2018-11-11T10:07:49Z</time>
      </trkpt>
      <trkpt lat="42.851138" lon="0.752910">
        <ele>1161.8</ele>
        <time>2018-11-11T10:08:09Z</time>
      </trkpt>
      <trkpt lat="42.851066" lon="0.752990">
        <ele>1165.3</ele>
        <time>2018-11-11T10:08:33Z</time>
      </trkpt>
      <trkpt lat="42.851001" lon="0.753021">
        <ele>1168.5</ele>
        <time>2018-11-11T10:08:52Z</time>
      </trkpt>
      <trkpt lat="42.850950" lon="0.752935">
        <ele>1171.5</ele>
        <time>2018-11-11T10:09:16Z</time>
      </trkpt>
      <trkpt lat="42.850922" lon="0.752818">
        <ele>1175.5</ele>
        <time>2018-11-11T10:09:43Z</time>
      </trkpt>
      <trkpt lat="42.850889" lon="0.752712">
        <ele>1177.8</ele>
        <time>2018-11-11T10:10:01Z</time>
      </trkpt>
      <trkpt lat="42.850867" lon="0.752629">
        <ele>1180.6</ele>
        <time>2018-11-11T10:10:22Z</time>
      </trkpt>
      <trkpt lat="42.850826" lon="0.752532">
        <ele>1183.6</ele>
        <time>2018-11-11T10:10:46Z</time>
      </trkpt>
      <trkpt lat="42.850786" lon="0.752345">
        <ele>1185.2</ele>
        <time>2018-11-11T10:11:03Z</time>
      </trkpt>
      <trkpt lat="42.850834" lon="0.752239">
        <ele>1187.2</ele>
        <time>2018-11-11T10:11:20Z</time>
      </trkpt>
      <trkpt lat="42.850786" lon="0.752064">
        <ele>1189.5</ele>
        <time>2018-11-11T10:11:37Z</time>
      </trkpt>
      <trkpt lat="42.850772" lon="0.751963">
        <ele>1191.1</ele>
        <time>2018-11-11T10:11:49Z</time>
      </trkpt>
      <trkpt lat="42.850796" lon="0.751867">
        <ele>1193.2</ele>
        <time>2018-11-11T10:12:03Z</time>
      </trkpt>
      <trkpt lat="42.850826" lon="0.751751">
        <ele>1195.4</ele>
        <time>2018-11-11T10:12:22Z</time>
      </trkpt>
      <trkpt lat="42.850851" lon="0.751623">
        <ele>1197.8</ele>
        <time>2018-11-11T10:12:42Z</time>
      </trkpt>
      <trkpt lat="42.850897" lon="0.751520">
        <ele>1199.9</ele>
        <time>2018-11-11T10:12:58Z</time>
      </trkpt>
      <trkpt lat="42.850983" lon="0.751443">
        <ele>1207.7</ele>
        <time>2018-11-11T10:19:35Z</time>
      </trkpt>
      <trkpt lat="42.851011" lon="0.751277">
        <ele>1208.4</ele>
        <time>2018-11-11T10:19:54Z</time>
      </trkpt>
      <trkpt lat="42.851020" lon="0.751161">
        <ele>1210.7</ele>
        <time>2018-11-11T10:20:10Z</time>
      </trkpt>
      <trkpt lat="42.851009" lon="0.751004">
        <ele>1213.4</ele>
        <time>2018-11-11T10:20:29Z</time>
      </trkpt>
      <trkpt lat="42.850930" lon="0.750926">
        <ele>1217.0</ele>
        <time>2018-11-11T10:20:49Z</time>
      </trkpt>
      <trkpt lat="42.850857" lon="0.750877">
        <ele>1220.4</ele>
        <time>2018-11-11T10:21:09Z</time>
      </trkpt>
      <trkpt lat="42.850883" lon="0.750762">
        <ele>1225.0</ele>
        <time>2018-11-11T10:21:35Z</time>
      </trkpt>
      <trkpt lat="42.850854" lon="0.750658">
        <ele>1228.5</ele>
        <time>2018-11-11T10:21:55Z</time>
      </trkpt>
      <trkpt lat="42.850786" lon="0.750544">
        <ele>1235.8</ele>
        <time>2018-11-11T10:22:42Z</time>
      </trkpt>
      <trkpt lat="42.850656" lon="0.750519">
        <ele>1238.8</ele>
        <time>2018-11-11T10:23:03Z</time>
      </trkpt>
      <trkpt lat="42.850564" lon="0.750489">
        <ele>1240.2</ele>
        <time>2018-11-11T10:23:19Z</time>
      </trkpt>
      <trkpt lat="42.850477" lon="0.750483">
        <ele>1241.7</ele>
        <time>2018-11-11T10:23:34Z</time>
      </trkpt>
      <trkpt lat="42.850329" lon="0.750464">
        <ele>1243.6</ele>
        <time>2018-11-11T10:23:55Z</time>
      </trkpt>
      <trkpt lat="42.850211" lon="0.750421">
        <ele>1245.8</ele>
        <time>2018-11-11T10:24:13Z</time>
      </trkpt>
      <trkpt lat="42.850088" lon="0.750466">
        <ele>1249.5</ele>
        <time>2018-11-11T10:24:34Z</time>
      </trkpt>
      <trkpt lat="42.849951" lon="0.750487">
        <ele>1251.3</ele>
        <time>2018-11-11T10:24:53Z</time>
      </trkpt>
      <trkpt lat="42.849863" lon="0.750623">
        <ele>1252.2</ele>
        <time>2018-11-11T10:25:11Z</time>
      </trkpt>
      <trkpt lat="42.849791" lon="0.750717">
        <ele>1254.9</ele>
        <time>2018-11-11T10:25:29Z</time>
      </trkpt>
      <trkpt lat="42.849769" lon="0.750820">
        <ele>1257.8</ele>
        <time>2018-11-11T10:25:45Z</time>
      </trkpt>
      <trkpt lat="42.849703" lon="0.750878">
        <ele>1261.7</ele>
        <time>2018-11-11T10:26:03Z</time>
      </trkpt>
      <trkpt lat="42.849629" lon="0.750963">
        <ele>1264.8</ele>
        <time>2018-11-11T10:26:19Z</time>
      </trkpt>
      <trkpt lat="42.849550" lon="0.751058">
        <ele>1266.8</ele>
        <time>2018-11-11T10:26:47Z</time>
      </trkpt>
      <trkpt lat="42.849456" lon="0.751139">
        <ele>1268.8</ele>
        <time>2018-11-11T10:27:00Z</time>
      </trkpt>
      <trkpt lat="42.849371" lon="0.751184">
        <ele>1272.6</ele>
        <time>2018-11-11T10:27:19Z</time>
      </trkpt>
      <trkpt lat="42.849303" lon="0.751175">
        <ele>1277.5</ele>
        <time>2018-11-11T10:27:47Z</time>
      </trkpt>
      <trkpt lat="42.849210" lon="0.751196">
        <ele>1281.6</ele>
        <time>2018-11-11T10:28:11Z</time>
      </trkpt>
      <trkpt lat="42.849137" lon="0.751181">
        <ele>1284.0</ele>
        <time>2018-11-11T10:28:45Z</time>
      </trkpt>
      <trkpt lat="42.849057" lon="0.751191">
        <ele>1286.7</ele>
        <time>2018-11-11T10:29:01Z</time>
      </trkpt>
      <trkpt lat="42.848933" lon="0.751225">
        <ele>1288.8</ele>
        <time>2018-11-11T10:29:25Z</time>
      </trkpt>
      <trkpt lat="42.848879" lon="0.751394">
        <ele>1289.3</ele>
        <time>2018-11-11T10:29:40Z</time>
      </trkpt>
      <trkpt lat="42.848893" lon="0.751514">
        <ele>1289.4</ele>
        <time>2018-11-11T10:29:56Z</time>
      </trkpt>
      <trkpt lat="42.848878" lon="0.751678">
        <ele>1290.5</ele>
        <time>2018-11-11T10:30:10Z</time>
      </trkpt>
      <trkpt lat="42.848816" lon="0.751781">
        <ele>1292.3</ele>
        <time>2018-11-11T10:30:26Z</time>
      </trkpt>
      <trkpt lat="42.848748" lon="0.751840">
        <ele>1295.2</ele>
        <time>2018-11-11T10:30:43Z</time>
      </trkpt>
      <trkpt lat="42.848688" lon="0.751829">
        <ele>1299.3</ele>
        <time>2018-11-11T10:31:06Z</time>
      </trkpt>
      <trkpt lat="42.848632" lon="0.751926">
        <ele>1303.0</ele>
        <time>2018-11-11T10:31:25Z</time>
      </trkpt>
      <trkpt lat="42.848560" lon="0.751957">
        <ele>1304.5</ele>
        <time>2018-11-11T10:31:47Z</time>
      </trkpt>
      <trkpt lat="42.848481" lon="0.751898">
        <ele>1306.4</ele>
        <time>2018-11-11T10:32:03Z</time>
      </trkpt>
      <trkpt lat="42.848435" lon="0.751901">
        <ele>1311.6</ele>
        <time>2018-11-11T10:32:31Z</time>
      </trkpt>
      <trkpt lat="42.848325" lon="0.751847">
        <ele>1318.4</ele>
        <time>2018-11-11T10:33:16Z</time>
      </trkpt>
      <trkpt lat="42.848145" lon="0.751889">
        <ele>1331.7</ele>
        <time>2018-11-11T10:34:49Z</time>
      </trkpt>
      <trkpt lat="42.848115" lon="0.751996">
        <ele>1333.7</ele>
        <time>2018-11-11T10:35:05Z</time>
      </trkpt>
      <trkpt lat="42.848065" lon="0.752085">
        <ele>1336.2</ele>
        <time>2018-11-11T10:35:42Z</time>
      </trkpt>
      <trkpt lat="42.848062" lon="0.752173">
        <ele>1337.0</ele>
        <time>2018-11-11T10:36:02Z</time>
      </trkpt>
      <trkpt lat="42.848009" lon="0.752283">
        <ele>1340.2</ele>
        <time>2018-11-11T10:36:21Z</time>
      </trkpt>
      <trkpt lat="42.847935" lon="0.752378">
        <ele>1344.1</ele>
        <time>2018-11-11T10:36:44Z</time>
      </trkpt>
      <trkpt lat="42.847875" lon="0.752481">
        <ele>1347.6</ele>
        <time>2018-11-11T10:37:11Z</time>
      </trkpt>
      <trkpt lat="42.847816" lon="0.752428">
        <ele>1352.1</ele>
        <time>2018-11-11T10:37:39Z</time>
      </trkpt>
      <trkpt lat="42.847729" lon="0.752424">
        <ele>1360.4</ele>
        <time>2018-11-11T10:38:27Z</time>
      </trkpt>
      <trkpt lat="42.847656" lon="0.752306">
        <ele>1363.9</ele>
        <time>2018-11-11T10:38:47Z</time>
      </trkpt>
      <trkpt lat="42.847634" lon="0.752188">
        <ele>1366.6</ele>
        <time>2018-11-11T10:39:07Z</time>
      </trkpt>
      <trkpt lat="42.847604" lon="0.752095">
        <ele>1370.4</ele>
        <time>2018-11-11T10:39:29Z</time>
      </trkpt>
      <trkpt lat="42.847522" lon="0.752074">
        <ele>1374.8</ele>
        <time>2018-11-11T10:39:55Z</time>
      </trkpt>
      <trkpt lat="42.847485" lon="0.751953">
        <ele>1377.6</ele>
        <time>2018-11-11T10:40:17Z</time>
      </trkpt>
      <trkpt lat="42.847440" lon="0.751887">
        <ele>1380.5</ele>
        <time>2018-11-11T10:40:34Z</time>
      </trkpt>
      <trkpt lat="42.847374" lon="0.751819">
        <ele>1383.8</ele>
        <time>2018-11-11T10:40:54Z</time>
      </trkpt>
      <trkpt lat="42.847288" lon="0.751764">
        <ele>1387.8</ele>
        <time>2018-11-11T10:41:18Z</time>
      </trkpt>
      <trkpt lat="42.847231" lon="0.751489">
        <ele>1397.9</ele>
        <time>2018-11-11T10:43:38Z</time>
      </trkpt>
      <trkpt lat="42.847276" lon="0.751388">
        <ele>1397.6</ele>
        <time>2018-11-11T10:43:55Z</time>
      </trkpt>
      <trkpt lat="42.847281" lon="0.751356">
        <ele>1398.0</ele>
        <time>2018-11-11T10:44:27Z</time>
      </trkpt>
      <trkpt lat="42.847256" lon="0.751238">
        <ele>1397.8</ele>
        <time>2018-11-11T10:44:44Z</time>
      </trkpt>
      <trkpt lat="42.847262" lon="0.751074">
        <ele>1398.2</ele>
        <time>2018-11-11T10:45:01Z</time>
      </trkpt>
      <trkpt lat="42.847199" lon="0.750922">
        <ele>1399.9</ele>
        <time>2018-11-11T10:45:19Z</time>
      </trkpt>
      <trkpt lat="42.847172" lon="0.750747">
        <ele>1402.1</ele>
        <time>2018-11-11T10:45:41Z</time>
      </trkpt>
      <trkpt lat="42.847065" lon="0.750639">
        <ele>1405.4</ele>
        <time>2018-11-11T10:46:01Z</time>
      </trkpt>
      <trkpt lat="42.847024" lon="0.750546">
        <ele>1409.9</ele>
        <time>2018-11-11T10:46:31Z</time>
      </trkpt>
      <trkpt lat="42.846970" lon="0.750454">
        <ele>1413.5</ele>
        <time>2018-11-11T10:46:54Z</time>
      </trkpt>
      <trkpt lat="42.846900" lon="0.750361">
        <ele>1415.9</ele>
        <time>2018-11-11T10:47:13Z</time>
        <name>Pas de Trentenade</name>
      </trkpt>
      <trkpt lat="42.846840" lon="0.750347">
        <ele>1418.3</ele>
        <time>2018-11-11T10:47:34Z</time>
      </trkpt>
      <trkpt lat="42.846702" lon="0.750532">
        <ele>1429.9</ele>
        <time>2018-11-11T10:48:48Z</time>
      </trkpt>
      <trkpt lat="42.846631" lon="0.750573">
        <ele>1433.3</ele>
        <time>2018-11-11T10:49:11Z</time>
      </trkpt>
      <trkpt lat="42.846525" lon="0.750564">
        <ele>1436.5</ele>
        <time>2018-11-11T10:49:27Z</time>
      </trkpt>
      <trkpt lat="42.846435" lon="0.750525">
        <ele>1438.4</ele>
        <time>2018-11-11T10:49:46Z</time>
      </trkpt>
      <trkpt lat="42.846323" lon="0.750503">
        <ele>1442.1</ele>
        <time>2018-11-11T10:50:07Z</time>
      </trkpt>
      <trkpt lat="42.846307" lon="0.750501">
        <ele>1445.7</ele>
        <time>2018-11-11T10:50:25Z</time>
      </trkpt>
      <trkpt lat="42.846238" lon="0.750538">
        <ele>1448.7</ele>
        <time>2018-11-11T10:50:49Z</time>
      </trkpt>
      <trkpt lat="42.846138" lon="0.750549">
        <ele>1451.4</ele>
        <time>2018-11-11T10:51:06Z</time>
      </trkpt>
      <trkpt lat="42.846024" lon="0.750530">
        <ele>1453.7</ele>
        <time>2018-11-11T10:51:22Z</time>
      </trkpt>
      <trkpt lat="42.846008" lon="0.750504">
        <ele>1458.2</ele>
        <time>2018-11-11T10:58:18Z</time>
      </trkpt>
      <trkpt lat="42.845984" lon="0.750509">
        <ele>1459.8</ele>
        <time>2018-11-11T10:59:32Z</time>
      </trkpt>
      <trkpt lat="42.845971" lon="0.750651">
        <ele>1463.4</ele>
        <time>2018-11-11T10:59:50Z</time>
      </trkpt>
      <trkpt lat="42.845968" lon="0.750749">
        <ele>1467.5</ele>
        <time>2018-11-11T11:00:11Z</time>
      </trkpt>
      <trkpt lat="42.845916" lon="0.750843">
        <ele>1472.5</ele>
        <time>2018-11-11T11:00:35Z</time>
      </trkpt>
      <trkpt lat="42.845855" lon="0.750925">
        <ele>1476.3</ele>
        <time>2018-11-11T11:00:57Z</time>
      </trkpt>
      <trkpt lat="42.845834" lon="0.751046">
        <ele>1479.4</ele>
        <time>2018-11-11T11:01:18Z</time>
      </trkpt>
      <trkpt lat="42.845773" lon="0.751109">
        <ele>1483.9</ele>
        <time>2018-11-11T11:01:44Z</time>
      </trkpt>
      <trkpt lat="42.845668" lon="0.751100">
        <ele>1486.2</ele>
        <time>2018-11-11T11:02:05Z</time>
      </trkpt>
      <trkpt lat="42.845628" lon="0.751223">
        <ele>1490.9</ele>
        <time>2018-11-11T11:02:27Z</time>
      </trkpt>
      <trkpt lat="42.845658" lon="0.751374">
        <ele>1493.5</ele>
        <time>2018-11-11T11:02:48Z</time>
      </trkpt>
      <trkpt lat="42.845605" lon="0.751569">
        <ele>1499.8</ele>
        <time>2018-11-11T11:03:29Z</time>
      </trkpt>
      <trkpt lat="42.845582" lon="0.751683">
        <ele>1502.1</ele>
        <time>2018-11-11T11:03:48Z</time>
      </trkpt>
      <trkpt lat="42.845519" lon="0.751813">
        <ele>1504.6</ele>
        <time>2018-11-11T11:04:09Z</time>
      </trkpt>
      <trkpt lat="42.845511" lon="0.751931">
        <ele>1508.0</ele>
        <time>2018-11-11T11:04:32Z</time>
      </trkpt>
      <trkpt lat="42.845451" lon="0.752064">
        <ele>1510.3</ele>
        <time>2018-11-11T11:04:51Z</time>
      </trkpt>
      <trkpt lat="42.845356" lon="0.752200">
        <ele>1509.8</ele>
        <time>2018-11-11T11:05:10Z</time>
      </trkpt>
      <trkpt lat="42.845317" lon="0.752396">
        <ele>1510.0</ele>
        <time>2018-11-11T11:05:29Z</time>
      </trkpt>
      <trkpt lat="42.845298" lon="0.752512">
        <ele>1512.2</ele>
        <time>2018-11-11T11:05:55Z</time>
      </trkpt>
      <trkpt lat="42.845239" lon="0.752617">
        <ele>1515.5</ele>
        <time>2018-11-11T11:06:17Z</time>
      </trkpt>
      <trkpt lat="42.845211" lon="0.752746">
        <ele>1517.8</ele>
        <time>2018-11-11T11:06:36Z</time>
      </trkpt>
      <trkpt lat="42.845139" lon="0.752959">
        <ele>1519.4</ele>
        <time>2018-11-11T11:07:37Z</time>
      </trkpt>
      <trkpt lat="42.845158" lon="0.753116">
        <ele>1520.3</ele>
        <time>2018-11-11T11:07:54Z</time>
      </trkpt>
      <trkpt lat="42.845127" lon="0.753305">
        <ele>1523.6</ele>
        <time>2018-11-11T11:08:15Z</time>
      </trkpt>
      <trkpt lat="42.845091" lon="0.753452">
        <ele>1525.1</ele>
        <time>2018-11-11T11:08:30Z</time>
      </trkpt>
      <trkpt lat="42.845065" lon="0.753588">
        <ele>1525.7</ele>
        <time>2018-11-11T11:08:50Z</time>
      </trkpt>
      <trkpt lat="42.845039" lon="0.753794">
        <ele>1527.3</ele>
        <time>2018-11-11T11:09:09Z</time>
      </trkpt>
      <trkpt lat="42.844977" lon="0.753946">
        <ele>1527.7</ele>
        <time>2018-11-11T11:09:26Z</time>
      </trkpt>
      <trkpt lat="42.844933" lon="0.754117">
        <ele>1527.8</ele>
        <time>2018-11-11T11:09:44Z</time>
      </trkpt>
      <trkpt lat="42.844897" lon="0.754256">
        <ele>1531.2</ele>
        <time>2018-11-11T11:10:03Z</time>
      </trkpt>
      <trkpt lat="42.844874" lon="0.754386">
        <ele>1535.5</ele>
        <time>2018-11-11T11:10:23Z</time>
      </trkpt>
      <trkpt lat="42.844796" lon="0.754514">
        <ele>1539.4</ele>
        <time>2018-11-11T11:10:45Z</time>
      </trkpt>
      <trkpt lat="42.844723" lon="0.754644">
        <ele>1543.3</ele>
        <time>2018-11-11T11:11:06Z</time>
      </trkpt>
      <trkpt lat="42.844675" lon="0.754800">
        <ele>1545.7</ele>
        <time>2018-11-11T11:11:24Z</time>
      </trkpt>
      <trkpt lat="42.844611" lon="0.754909">
        <ele>1548.7</ele>
        <time>2018-11-11T11:11:42Z</time>
      </trkpt>
      <trkpt lat="42.844517" lon="0.755104">
        <ele>1550.4</ele>
        <time>2018-11-11T11:14:21Z</time>
      </trkpt>
      <trkpt lat="42.844528" lon="0.755307">
        <ele>1551.0</ele>
        <time>2018-11-11T11:14:40Z</time>
      </trkpt>
      <trkpt lat="42.844543" lon="0.755432">
        <ele>1552.9</ele>
        <time>2018-11-11T11:14:57Z</time>
      </trkpt>
      <trkpt lat="42.844561" lon="0.755618">
        <ele>1555.0</ele>
        <time>2018-11-11T11:15:17Z</time>
      </trkpt>
      <trkpt lat="42.844534" lon="0.755775">
        <ele>1557.0</ele>
        <time>2018-11-11T11:15:36Z</time>
      </trkpt>
      <trkpt lat="42.844485" lon="0.755949">
        <ele>1557.9</ele>
        <time>2018-11-11T11:15:55Z</time>
      </trkpt>
      <trkpt lat="42.844526" lon="0.756069">
        <ele>1560.1</ele>
        <time>2018-11-11T11:16:15Z</time>
      </trkpt>
      <trkpt lat="42.844506" lon="0.756221">
        <ele>1563.6</ele>
        <time>2018-11-11T11:16:34Z</time>
      </trkpt>
      <trkpt lat="42.844461" lon="0.756362">
        <ele>1565.9</ele>
        <time>2018-11-11T11:16:53Z</time>
      </trkpt>
      <trkpt lat="42.844409" lon="0.756477">
        <ele>1568.9</ele>
        <time>2018-11-11T11:17:14Z</time>
      </trkpt>
      <trkpt lat="42.844397" lon="0.756611">
        <ele>1570.4</ele>
        <time>2018-11-11T11:17:32Z</time>
      </trkpt>
      <trkpt lat="42.844360" lon="0.756757">
        <ele>1571.6</ele>
        <time>2018-11-11T11:17:49Z</time>
      </trkpt>
      <trkpt lat="42.844343" lon="0.756912">
        <ele>1572.6</ele>
        <time>2018-11-11T11:18:08Z</time>
      </trkpt>
      <trkpt lat="42.844283" lon="0.757061">
        <ele>1573.1</ele>
        <time>2018-11-11T11:18:26Z</time>
      </trkpt>
      <trkpt lat="42.844228" lon="0.757196">
        <ele>1574.3</ele>
        <time>2018-11-11T11:18:40Z</time>
      </trkpt>
      <trkpt lat="42.844232" lon="0.757321">
        <ele>1576.8</ele>
        <time>2018-11-11T11:19:01Z</time>
      </trkpt>
      <trkpt lat="42.844147" lon="0.757414">
        <ele>1579.2</ele>
        <time>2018-11-11T11:19:18Z</time>
      </trkpt>
      <trkpt lat="42.844067" lon="0.757578">
        <ele>1581.0</ele>
        <time>2018-11-11T11:19:37Z</time>
      </trkpt>
      <trkpt lat="42.843989" lon="0.757772">
        <ele>1583.2</ele>
        <time>2018-11-11T11:19:59Z</time>
      </trkpt>
      <trkpt lat="42.843900" lon="0.757877">
        <ele>1586.0</ele>
        <time>2018-11-11T11:20:17Z</time>
      </trkpt>
      <trkpt lat="42.843832" lon="0.758005">
        <ele>1589.5</ele>
        <time>2018-11-11T11:20:37Z</time>
      </trkpt>
      <trkpt lat="42.843784" lon="0.758120">
        <ele>1591.3</ele>
        <time>2018-11-11T11:20:53Z</time>
      </trkpt>
      <trkpt lat="42.843673" lon="0.758223">
        <ele>1592.5</ele>
        <time>2018-11-11T11:21:10Z</time>
      </trkpt>
      <trkpt lat="42.843593" lon="0.758297">
        <ele>1593.6</ele>
        <time>2018-11-11T11:21:25Z</time>
      </trkpt>
      <trkpt lat="42.843499" lon="0.758401">
        <ele>1593.1</ele>
        <time>2018-11-11T11:21:42Z</time>
      </trkpt>
      <trkpt lat="42.843426" lon="0.758551">
        <ele>1593.0</ele>
        <time>2018-11-11T11:21:57Z</time>
      </trkpt>
      <trkpt lat="42.843351" lon="0.758733">
        <ele>1595.6</ele>
        <time>2018-11-11T11:22:14Z</time>
      </trkpt>
      <trkpt lat="42.843305" lon="0.758900">
        <ele>1597.9</ele>
        <time>2018-11-11T11:22:34Z</time>
      </trkpt>
      <trkpt lat="42.843251" lon="0.759066">
        <ele>1599.4</ele>
        <time>2018-11-11T11:22:51Z</time>
      </trkpt>
      <trkpt lat="42.843177" lon="0.759234">
        <ele>1600.2</ele>
        <time>2018-11-11T11:23:06Z</time>
      </trkpt>
      <trkpt lat="42.843155" lon="0.759423">
        <ele>1601.3</ele>
        <time>2018-11-11T11:23:19Z</time>
      </trkpt>
      <trkpt lat="42.843175" lon="0.759553">
        <ele>1601.4</ele>
        <time>2018-11-11T11:23:34Z</time>
      </trkpt>
      <trkpt lat="42.843135" lon="0.759682">
        <ele>1603.3</ele>
        <time>2018-11-11T11:23:52Z</time>
      </trkpt>
      <trkpt lat="42.843093" lon="0.759806">
        <ele>1607.3</ele>
        <time>2018-11-11T11:24:11Z</time>
      </trkpt>
      <trkpt lat="42.843108" lon="0.759917">
        <ele>1610.2</ele>
        <time>2018-11-11T11:24:30Z</time>
      </trkpt>
      <trkpt lat="42.843083" lon="0.760110">
        <ele>1610.7</ele>
        <time>2018-11-11T11:24:47Z</time>
      </trkpt>
      <trkpt lat="42.843072" lon="0.760277">
        <ele>1611.2</ele>
        <time>2018-11-11T11:25:05Z</time>
      </trkpt>
      <trkpt lat="42.843096" lon="0.760381">
        <ele>1613.3</ele>
        <time>2018-11-11T11:25:21Z</time>
      </trkpt>
      <trkpt lat="42.843122" lon="0.760531">
        <ele>1617.6</ele>
        <time>2018-11-11T11:25:42Z</time>
      </trkpt>
      <trkpt lat="42.843091" lon="0.760681">
        <ele>1621.0</ele>
        <time>2018-11-11T11:26:00Z</time>
      </trkpt>
      <trkpt lat="42.843038" lon="0.760789">
        <ele>1622.5</ele>
        <time>2018-11-11T11:26:18Z</time>
      </trkpt>
      <trkpt lat="42.843029" lon="0.760923">
        <ele>1625.9</ele>
        <time>2018-11-11T11:26:38Z</time>
      </trkpt>
      <trkpt lat="42.842978" lon="0.761025">
        <ele>1630.1</ele>
        <time>2018-11-11T11:27:04Z</time>
      </trkpt>
      <trkpt lat="42.842922" lon="0.761138">
        <ele>1633.4</ele>
        <time>2018-11-11T11:27:25Z</time>
      </trkpt>
      <trkpt lat="42.842885" lon="0.761269">
        <ele>1632.8</ele>
        <time>2018-11-11T11:27:38Z</time>
      </trkpt>
      <trkpt lat="42.842840" lon="0.761420">
        <ele>1633.7</ele>
        <time>2018-11-11T11:27:57Z</time>
      </trkpt>
      <trkpt lat="42.842807" lon="0.761558">
        <ele>1634.7</ele>
        <time>2018-11-11T11:28:20Z</time>
        <name>Tuc de la Goute</name>
      </trkpt>
      <trkpt lat="42.842821" lon="0.761688">
        <ele>1634.7</ele>
        <time>2018-11-11T11:28:31Z</time>
      </trkpt>
      <trkpt lat="42.842778" lon="0.761800">
        <ele>1634.7</ele>
        <time>2018-11-11T11:28:45Z</time>
      </trkpt>
      <trkpt lat="42.842764" lon="0.761902">
        <ele>1632.2</ele>
        <time>2018-11-11T11:29:01Z</time>
      </trkpt>
      <trkpt lat="42.842682" lon="0.762012">
        <ele>1622.0</ele>
        <time>2018-11-11T11:33:22Z</time>
      </trkpt>
      <trkpt lat="42.842603" lon="0.762082">
        <ele>1617.4</ele>
        <time>2018-11-11T11:33:42Z</time>
      </trkpt>
      <trkpt lat="42.842539" lon="0.762157">
        <ele>1613.4</ele>
        <time>2018-11-11T11:33:57Z</time>
      </trkpt>
      <trkpt lat="42.842443" lon="0.762160">
        <ele>1613.2</ele>
        <time>2018-11-11T11:34:56Z</time>
      </trkpt>
      <trkpt lat="42.842404" lon="0.762258">
        <ele>1615.2</ele>
        <time>2018-11-11T11:35:51Z</time>
      </trkpt>
      <trkpt lat="42.842291" lon="0.762266">
        <ele>1615.8</ele>
        <time>2018-11-11T11:36:06Z</time>
      </trkpt>
      <trkpt lat="42.842163" lon="0.762340">
        <ele>1617.4</ele>
        <time>2018-11-11T11:36:24Z</time>
      </trkpt>
      <trkpt lat="42.842042" lon="0.762375">
        <ele>1617.5</ele>
        <time>2018-11-11T11:36:43Z</time>
      </trkpt>
      <trkpt lat="42.841923" lon="0.762444">
        <ele>1616.1</ele>
        <time>2018-11-11T11:36:58Z</time>
      </trkpt>
      <trkpt lat="42.841807" lon="0.762444">
        <ele>1616.6</ele>
        <time>2018-11-11T11:37:12Z</time>
      </trkpt>
      <trkpt lat="42.841790" lon="0.762442">
        <ele>1615.9</ele>
        <time>2018-11-11T11:37:46Z</time>
      </trkpt>
      <trkpt lat="42.841708" lon="0.762360">
        <ele>1615.5</ele>
        <time>2018-11-11T11:38:11Z</time>
      </trkpt>
      <trkpt lat="42.841607" lon="0.762286">
        <ele>1615.0</ele>
        <time>2018-11-11T11:38:23Z</time>
      </trkpt>
      <trkpt lat="42.841510" lon="0.762262">
        <ele>1614.9</ele>
        <time>2018-11-11T11:38:33Z</time>
      </trkpt>
      <trkpt lat="42.841418" lon="0.762231">
        <ele>1613.9</ele>
        <time>2018-11-11T11:38:43Z</time>
      </trkpt>
      <trkpt lat="42.841306" lon="0.762211">
        <ele>1612.2</ele>
        <time>2018-11-11T11:38:54Z</time>
      </trkpt>
      <trkpt lat="42.841206" lon="0.762227">
        <ele>1610.8</ele>
        <time>2018-11-11T11:39:04Z</time>
      </trkpt>
      <trkpt lat="42.841137" lon="0.762212">
        <ele>1609.5</ele>
        <time>2018-11-11T11:39:16Z</time>
      </trkpt>
      <trkpt lat="42.841045" lon="0.762237">
        <ele>1608.4</ele>
        <time>2018-11-11T11:39:25Z</time>
      </trkpt>
      <trkpt lat="42.840959" lon="0.762300">
        <ele>1607.1</ele>
        <time>2018-11-11T11:39:34Z</time>
      </trkpt>
      <trkpt lat="42.840881" lon="0.762362">
        <ele>1606.4</ele>
        <time>2018-11-11T11:39:43Z</time>
      </trkpt>
      <trkpt lat="42.840797" lon="0.762419">
        <ele>1606.1</ele>
        <time>2018-11-11T11:39:52Z</time>
      </trkpt>
      <trkpt lat="42.840737" lon="0.762512">
        <ele>1606.5</ele>
        <time>2018-11-11T11:40:01Z</time>
      </trkpt>
      <trkpt lat="42.840664" lon="0.762590">
        <ele>1606.6</ele>
        <time>2018-11-11T11:40:13Z</time>
      </trkpt>
      <trkpt lat="42.840616" lon="0.762713">
        <ele>1607.0</ele>
        <time>2018-11-11T11:40:24Z</time>
      </trkpt>
      <trkpt lat="42.840574" lon="0.762847">
        <ele>1607.6</ele>
        <time>2018-11-11T11:40:35Z</time>
      </trkpt>
      <trkpt lat="42.840519" lon="0.762963">
        <ele>1608.4</ele>
        <time>2018-11-11T11:40:46Z</time>
      </trkpt>
      <trkpt lat="42.840479" lon="0.763080">
        <ele>1609.1</ele>
        <time>2018-11-11T11:40:56Z</time>
      </trkpt>
      <trkpt lat="42.840439" lon="0.763213">
        <ele>1611.0</ele>
        <time>2018-11-11T11:41:28Z</time>
      </trkpt>
      <trkpt lat="42.840403" lon="0.763336">
        <ele>1611.7</ele>
        <time>2018-11-11T11:41:43Z</time>
      </trkpt>
      <trkpt lat="42.840360" lon="0.763471">
        <ele>1612.4</ele>
        <time>2018-11-11T11:41:55Z</time>
      </trkpt>
      <trkpt lat="42.840315" lon="0.763590">
        <ele>1612.2</ele>
        <time>2018-11-11T11:42:04Z</time>
      </trkpt>
      <trkpt lat="42.840279" lon="0.763717">
        <ele>1612.4</ele>
        <time>2018-11-11T11:42:13Z</time>
      </trkpt>
      <trkpt lat="42.840271" lon="0.763865">
        <ele>1613.8</ele>
        <time>2018-11-11T11:42:26Z</time>
      </trkpt>
      <trkpt lat="42.840250" lon="0.763999">
        <ele>1615.2</ele>
        <time>2018-11-11T11:42:39Z</time>
      </trkpt>
      <trkpt lat="42.840204" lon="0.764117">
        <ele>1618.0</ele>
        <time>2018-11-11T11:44:24Z</time>
      </trkpt>
      <trkpt lat="42.840226" lon="0.764245">
        <ele>1617.8</ele>
        <time>2018-11-11T11:44:56Z</time>
      </trkpt>
      <trkpt lat="42.840237" lon="0.764373">
        <ele>1617.6</ele>
        <time>2018-11-11T11:45:07Z</time>
      </trkpt>
      <trkpt lat="42.840219" lon="0.764503">
        <ele>1617.2</ele>
        <time>2018-11-11T11:45:37Z</time>
      </trkpt>
      <trkpt lat="42.840225" lon="0.764651">
        <ele>1616.2</ele>
        <time>2018-11-11T11:45:48Z</time>
      </trkpt>
      <trkpt lat="42.840243" lon="0.764778">
        <ele>1616.7</ele>
        <time>2018-11-11T11:46:00Z</time>
      </trkpt>
      <trkpt lat="42.840271" lon="0.764918">
        <ele>1617.3</ele>
        <time>2018-11-11T11:46:11Z</time>
      </trkpt>
      <trkpt lat="42.840252" lon="0.765077">
        <ele>1617.3</ele>
        <time>2018-11-11T11:46:21Z</time>
      </trkpt>
      <trkpt lat="42.840196" lon="0.765205">
        <ele>1616.7</ele>
        <time>2018-11-11T11:46:32Z</time>
      </trkpt>
      <trkpt lat="42.840131" lon="0.765312">
        <ele>1615.3</ele>
        <time>2018-11-11T11:46:40Z</time>
      </trkpt>
      <trkpt lat="42.840067" lon="0.765412">
        <ele>1614.4</ele>
        <time>2018-11-11T11:46:48Z</time>
      </trkpt>
      <trkpt lat="42.839997" lon="0.765519">
        <ele>1613.8</ele>
        <time>2018-11-11T11:46:57Z</time>
      </trkpt>
      <trkpt lat="42.839927" lon="0.765600">
        <ele>1613.4</ele>
        <time>2018-11-11T11:47:05Z</time>
      </trkpt>
      <trkpt lat="42.839843" lon="0.765677">
        <ele>1613.5</ele>
        <time>2018-11-11T11:47:14Z</time>
      </trkpt>
      <trkpt lat="42.839777" lon="0.765772">
        <ele>1613.6</ele>
        <time>2018-11-11T11:47:23Z</time>
      </trkpt>
      <trkpt lat="42.839714" lon="0.765856">
        <ele>1613.5</ele>
        <time>2018-11-11T11:47:32Z</time>
      </trkpt>
      <trkpt lat="42.839637" lon="0.765956">
        <ele>1613.9</ele>
        <time>2018-11-11T11:47:42Z</time>
      </trkpt>
      <trkpt lat="42.839584" lon="0.766042">
        <ele>1613.9</ele>
        <time>2018-11-11T11:47:49Z</time>
      </trkpt>
      <trkpt lat="42.839529" lon="0.766123">
        <ele>1613.8</ele>
        <time>2018-11-11T11:47:58Z</time>
      </trkpt>
      <trkpt lat="42.839465" lon="0.766219">
        <ele>1614.4</ele>
        <time>2018-11-11T11:48:08Z</time>
      </trkpt>
      <trkpt lat="42.839407" lon="0.766334">
        <ele>1616.0</ele>
        <time>2018-11-11T11:48:19Z</time>
      </trkpt>
      <trkpt lat="42.839326" lon="0.766405">
        <ele>1616.7</ele>
        <time>2018-11-11T11:48:27Z</time>
      </trkpt>
      <trkpt lat="42.839265" lon="0.766486">
        <ele>1617.2</ele>
        <time>2018-11-11T11:48:36Z</time>
      </trkpt>
      <trkpt lat="42.839207" lon="0.766579">
        <ele>1618.6</ele>
        <time>2018-11-11T11:48:46Z</time>
      </trkpt>
      <trkpt lat="42.839157" lon="0.766666">
        <ele>1620.3</ele>
        <time>2018-11-11T11:48:58Z</time>
      </trkpt>
      <trkpt lat="42.839095" lon="0.766784">
        <ele>1622.7</ele>
        <time>2018-11-11T11:49:10Z</time>
      </trkpt>
      <trkpt lat="42.839032" lon="0.766881">
        <ele>1624.6</ele>
        <time>2018-11-11T11:49:21Z</time>
      </trkpt>
      <trkpt lat="42.839037" lon="0.767008">
        <ele>1626.5</ele>
        <time>2018-11-11T11:49:32Z</time>
      </trkpt>
      <trkpt lat="42.838995" lon="0.767126">
        <ele>1627.9</ele>
        <time>2018-11-11T11:49:42Z</time>
      </trkpt>
      <trkpt lat="42.838959" lon="0.767217">
        <ele>1629.8</ele>
        <time>2018-11-11T11:50:10Z</time>
      </trkpt>
      <trkpt lat="42.838935" lon="0.767358">
        <ele>1631.8</ele>
        <time>2018-11-11T11:50:23Z</time>
      </trkpt>
      <trkpt lat="42.838941" lon="0.767481">
        <ele>1633.4</ele>
        <time>2018-11-11T11:50:34Z</time>
      </trkpt>
      <trkpt lat="42.838921" lon="0.767625">
        <ele>1635.9</ele>
        <time>2018-11-11T11:50:47Z</time>
      </trkpt>
      <trkpt lat="42.838897" lon="0.767747">
        <ele>1637.3</ele>
        <time>2018-11-11T11:50:57Z</time>
      </trkpt>
      <trkpt lat="42.838896" lon="0.767870">
        <ele>1638.9</ele>
        <time>2018-11-11T11:51:08Z</time>
      </trkpt>
      <trkpt lat="42.838888" lon="0.768003">
        <ele>1640.3</ele>
        <time>2018-11-11T11:51:19Z</time>
      </trkpt>
      <trkpt lat="42.838880" lon="0.768124">
        <ele>1641.9</ele>
        <time>2018-11-11T11:51:30Z</time>
      </trkpt>
      <trkpt lat="42.838881" lon="0.768241">
        <ele>1642.5</ele>
        <time>2018-11-11T11:51:39Z</time>
      </trkpt>
      <trkpt lat="42.838883" lon="0.768368">
        <ele>1643.3</ele>
        <time>2018-11-11T11:51:49Z</time>
      </trkpt>
      <trkpt lat="42.838871" lon="0.768482">
        <ele>1643.8</ele>
        <time>2018-11-11T11:51:59Z</time>
      </trkpt>
      <trkpt lat="42.838844" lon="0.768601">
        <ele>1644.5</ele>
        <time>2018-11-11T11:52:10Z</time>
      </trkpt>
      <trkpt lat="42.838798" lon="0.768689">
        <ele>1645.1</ele>
        <time>2018-11-11T11:52:19Z</time>
      </trkpt>
      <trkpt lat="42.838743" lon="0.768811">
        <ele>1645.6</ele>
        <time>2018-11-11T11:52:32Z</time>
      </trkpt>
      <trkpt lat="42.838692" lon="0.768920">
        <ele>1646.2</ele>
        <time>2018-11-11T11:52:43Z</time>
      </trkpt>
      <trkpt lat="42.838639" lon="0.769028">
        <ele>1647.6</ele>
        <time>2018-11-11T11:52:56Z</time>
      </trkpt>
      <trkpt lat="42.838581" lon="0.769146">
        <ele>1649.1</ele>
        <time>2018-11-11T11:53:10Z</time>
      </trkpt>
      <trkpt lat="42.838505" lon="0.769246">
        <ele>1651.0</ele>
        <time>2018-11-11T11:53:23Z</time>
      </trkpt>
      <trkpt lat="42.838422" lon="0.769340">
        <ele>1653.6</ele>
        <time>2018-11-11T11:53:36Z</time>
      </trkpt>
      <trkpt lat="42.838353" lon="0.769446">
        <ele>1655.1</ele>
        <time>2018-11-11T11:53:52Z</time>
      </trkpt>
      <trkpt lat="42.838298" lon="0.769554">
        <ele>1656.3</ele>
        <time>2018-11-11T11:54:08Z</time>
      </trkpt>
      <trkpt lat="42.838252" lon="0.769674">
        <ele>1657.9</ele>
        <time>2018-11-11T11:54:22Z</time>
      </trkpt>
      <trkpt lat="42.838213" lon="0.769791">
        <ele>1659.9</ele>
        <time>2018-11-11T11:54:36Z</time>
      </trkpt>
      <trkpt lat="42.838154" lon="0.769910">
        <ele>1661.6</ele>
        <time>2018-11-11T11:54:50Z</time>
      </trkpt>
      <trkpt lat="42.838113" lon="0.770042">
        <ele>1662.9</ele>
        <time>2018-11-11T11:55:03Z</time>
      </trkpt>
      <trkpt lat="42.838072" lon="0.770174">
        <ele>1663.9</ele>
        <time>2018-11-11T11:55:19Z</time>
      </trkpt>
      <trkpt lat="42.838042" lon="0.770322">
        <ele>1666.0</ele>
        <time>2018-11-11T11:55:40Z</time>
      </trkpt>
      <trkpt lat="42.838014" lon="0.770470">
        <ele>1668.8</ele>
        <time>2018-11-11T11:55:58Z</time>
      </trkpt>
      <trkpt lat="42.838001" lon="0.770603">
        <ele>1670.9</ele>
        <time>2018-11-11T11:56:13Z</time>
      </trkpt>
      <trkpt lat="42.837989" lon="0.770738">
        <ele>1673.4</ele>
        <time>2018-11-11T11:56:29Z</time>
      </trkpt>
      <trkpt lat="42.837960" lon="0.770863">
        <ele>1676.1</ele>
        <time>2018-11-11T11:56:44Z</time>
      </trkpt>
      <trkpt lat="42.837948" lon="0.770995">
        <ele>1678.2</ele>
        <time>2018-11-11T11:56:59Z</time>
      </trkpt>
      <trkpt lat="42.837926" lon="0.771137">
        <ele>1681.1</ele>
        <time>2018-11-11T11:57:16Z</time>
      </trkpt>
      <trkpt lat="42.837914" lon="0.771263">
        <ele>1683.4</ele>
        <time>2018-11-11T11:57:31Z</time>
      </trkpt>
      <trkpt lat="42.837882" lon="0.771388">
        <ele>1685.1</ele>
        <time>2018-11-11T11:57:45Z</time>
      </trkpt>
      <trkpt lat="42.837880" lon="0.771526">
        <ele>1687.9</ele>
        <time>2018-11-11T11:58:01Z</time>
      </trkpt>
      <trkpt lat="42.837854" lon="0.771664">
        <ele>1689.7</ele>
        <time>2018-11-11T11:58:16Z</time>
      </trkpt>
      <trkpt lat="42.837841" lon="0.771796">
        <ele>1690.7</ele>
        <time>2018-11-11T11:58:28Z</time>
      </trkpt>
      <trkpt lat="42.837804" lon="0.771924">
        <ele>1692.0</ele>
        <time>2018-11-11T11:58:41Z</time>
      </trkpt>
      <trkpt lat="42.837782" lon="0.772040">
        <ele>1693.9</ele>
        <time>2018-11-11T11:59:08Z</time>
      </trkpt>
      <trkpt lat="42.837829" lon="0.772113">
        <ele>1695.6</ele>
        <time>2018-11-11T11:59:27Z</time>
      </trkpt>
      <trkpt lat="42.837898" lon="0.772152">
        <ele>1699.0</ele>
        <time>2018-11-11T11:59:43Z</time>
      </trkpt>
      <trkpt lat="42.837976" lon="0.772163">
        <ele>1702.4</ele>
        <time>2018-11-11T11:59:57Z</time>
      </trkpt>
      <trkpt lat="42.838043" lon="0.772208">
        <ele>1706.4</ele>
        <time>2018-11-11T12:00:13Z</time>
      </trkpt>
      <trkpt lat="42.838128" lon="0.772198">
        <ele>1709.0</ele>
        <time>2018-11-11T12:00:25Z</time>
      </trkpt>
      <trkpt lat="42.838211" lon="0.772222">
        <ele>1711.7</ele>
        <time>2018-11-11T12:00:38Z</time>
      </trkpt>
      <trkpt lat="42.838292" lon="0.772219">
        <ele>1714.7</ele>
        <time>2018-11-11T12:00:52Z</time>
      </trkpt>
      <trkpt lat="42.838375" lon="0.772275">
        <ele>1716.9</ele>
        <time>2018-11-11T12:01:06Z</time>
      </trkpt>
      <trkpt lat="42.838462" lon="0.772305">
        <ele>1719.3</ele>
        <time>2018-11-11T12:01:25Z</time>
        <name>Tuc des Pans</name>
      </trkpt>
      <trkpt lat="42.838439" lon="0.772381">
        <ele>1724.1</ele>
        <time>2018-11-11T12:48:14Z</time>
      </trkpt>
      <trkpt lat="42.838373" lon="0.772470">
        <ele>1724.5</ele>
        <time>2018-11-11T12:48:29Z</time>
      </trkpt>
      <trkpt lat="42.838302" lon="0.772551">
        <ele>1723.9</ele>
        <time>2018-11-11T12:48:41Z</time>
      </trkpt>
      <trkpt lat="42.838234" lon="0.772650">
        <ele>1723.0</ele>
        <time>2018-11-11T12:48:51Z</time>
      </trkpt>
      <trkpt lat="42.838167" lon="0.772738">
        <ele>1721.1</ele>
        <time>2018-11-11T12:49:01Z</time>
      </trkpt>
      <trkpt lat="42.838097" lon="0.772834">
        <ele>1718.9</ele>
        <time>2018-11-11T12:49:10Z</time>
      </trkpt>
      <trkpt lat="42.838034" lon="0.772924">
        <ele>1716.5</ele>
        <time>2018-11-11T12:49:18Z</time>
      </trkpt>
      <trkpt lat="42.837980" lon="0.773027">
        <ele>1715.7</ele>
        <time>2018-11-11T12:49:26Z</time>
      </trkpt>
      <trkpt lat="42.837935" lon="0.773142">
        <ele>1715.5</ele>
        <time>2018-11-11T12:49:34Z</time>
      </trkpt>
      <trkpt lat="42.837889" lon="0.773253">
        <ele>1714.8</ele>
        <time>2018-11-11T12:49:42Z</time>
      </trkpt>
      <trkpt lat="42.837853" lon="0.773364">
        <ele>1714.2</ele>
        <time>2018-11-11T12:49:55Z</time>
      </trkpt>
      <trkpt lat="42.837834" lon="0.773491">
        <ele>1714.4</ele>
        <time>2018-11-11T12:50:04Z</time>
      </trkpt>
      <trkpt lat="42.837804" lon="0.773615">
        <ele>1714.3</ele>
        <time>2018-11-11T12:50:12Z</time>
      </trkpt>
      <trkpt lat="42.837758" lon="0.773721">
        <ele>1714.4</ele>
        <time>2018-11-11T12:50:21Z</time>
      </trkpt>
      <trkpt lat="42.837729" lon="0.773845">
        <ele>1714.7</ele>
        <time>2018-11-11T12:50:30Z</time>
      </trkpt>
      <trkpt lat="42.837693" lon="0.773973">
        <ele>1715.6</ele>
        <time>2018-11-11T12:50:39Z</time>
      </trkpt>
      <trkpt lat="42.837653" lon="0.774092">
        <ele>1715.8</ele>
        <time>2018-11-11T12:50:50Z</time>
      </trkpt>
      <trkpt lat="42.837611" lon="0.774220">
        <ele>1716.3</ele>
        <time>2018-11-11T12:50:59Z</time>
      </trkpt>
      <trkpt lat="42.837580" lon="0.774350">
        <ele>1716.7</ele>
        <time>2018-11-11T12:51:08Z</time>
      </trkpt>
      <trkpt lat="42.837560" lon="0.774480">
        <ele>1717.7</ele>
        <time>2018-11-11T12:51:17Z</time>
      </trkpt>
      <trkpt lat="42.837543" lon="0.774601">
        <ele>1718.2</ele>
        <time>2018-11-11T12:51:26Z</time>
      </trkpt>
      <trkpt lat="42.837505" lon="0.774728">
        <ele>1719.5</ele>
        <time>2018-11-11T12:51:36Z</time>
      </trkpt>
      <trkpt lat="42.837461" lon="0.774845">
        <ele>1720.0</ele>
        <time>2018-11-11T12:51:45Z</time>
      </trkpt>
      <trkpt lat="42.837405" lon="0.774948">
        <ele>1720.5</ele>
        <time>2018-11-11T12:51:54Z</time>
      </trkpt>
      <trkpt lat="42.837352" lon="0.775051">
        <ele>1720.8</ele>
        <time>2018-11-11T12:52:03Z</time>
      </trkpt>
      <trkpt lat="42.837298" lon="0.775164">
        <ele>1720.9</ele>
        <time>2018-11-11T12:52:13Z</time>
      </trkpt>
      <trkpt lat="42.837245" lon="0.775267">
        <ele>1721.6</ele>
        <time>2018-11-11T12:52:22Z</time>
      </trkpt>
      <trkpt lat="42.837208" lon="0.775393">
        <ele>1721.7</ele>
        <time>2018-11-11T12:52:31Z</time>
      </trkpt>
      <trkpt lat="42.837173" lon="0.775526">
        <ele>1721.8</ele>
        <time>2018-11-11T12:52:40Z</time>
      </trkpt>
      <trkpt lat="42.837127" lon="0.775634">
        <ele>1722.1</ele>
        <time>2018-11-11T12:52:48Z</time>
      </trkpt>
      <trkpt lat="42.837083" lon="0.775743">
        <ele>1722.5</ele>
        <time>2018-11-11T12:52:57Z</time>
      </trkpt>
      <trkpt lat="42.837028" lon="0.775840">
        <ele>1723.3</ele>
        <time>2018-11-11T12:53:06Z</time>
      </trkpt>
      <trkpt lat="42.836975" lon="0.775955">
        <ele>1723.7</ele>
        <time>2018-11-11T12:53:15Z</time>
      </trkpt>
      <trkpt lat="42.836914" lon="0.776049">
        <ele>1723.6</ele>
        <time>2018-11-11T12:53:23Z</time>
      </trkpt>
      <trkpt lat="42.836860" lon="0.776151">
        <ele>1723.5</ele>
        <time>2018-11-11T12:53:31Z</time>
      </trkpt>
      <trkpt lat="42.836812" lon="0.776263">
        <ele>1724.4</ele>
        <time>2018-11-11T12:53:40Z</time>
      </trkpt>
      <trkpt lat="42.836761" lon="0.776362">
        <ele>1725.1</ele>
        <time>2018-11-11T12:53:49Z</time>
      </trkpt>
      <trkpt lat="42.836701" lon="0.776465">
        <ele>1725.9</ele>
        <time>2018-11-11T12:53:58Z</time>
      </trkpt>
      <trkpt lat="42.836666" lon="0.776587">
        <ele>1726.3</ele>
        <time>2018-11-11T12:54:07Z</time>
      </trkpt>
      <trkpt lat="42.836638" lon="0.776718">
        <ele>1727.1</ele>
        <time>2018-11-11T12:54:16Z</time>
      </trkpt>
      <trkpt lat="42.836621" lon="0.776837">
        <ele>1727.0</ele>
        <time>2018-11-11T12:54:24Z</time>
      </trkpt>
      <trkpt lat="42.836613" lon="0.776974">
        <ele>1726.7</ele>
        <time>2018-11-11T12:54:33Z</time>
      </trkpt>
      <trkpt lat="42.836605" lon="0.777101">
        <ele>1726.6</ele>
        <time>2018-11-11T12:54:41Z</time>
      </trkpt>
      <trkpt lat="42.836601" lon="0.777223">
        <ele>1726.5</ele>
        <time>2018-11-11T12:54:49Z</time>
      </trkpt>
      <trkpt lat="42.836604" lon="0.777338">
        <ele>1726.1</ele>
        <time>2018-11-11T12:55:04Z</time>
      </trkpt>
      <trkpt lat="42.836631" lon="0.777457">
        <ele>1726.4</ele>
        <time>2018-11-11T12:55:24Z</time>
      </trkpt>
      <trkpt lat="42.836612" lon="0.777582">
        <ele>1726.2</ele>
        <time>2018-11-11T12:55:40Z</time>
      </trkpt>
      <trkpt lat="42.836606" lon="0.777704">
        <ele>1726.5</ele>
        <time>2018-11-11T12:55:50Z</time>
      </trkpt>
      <trkpt lat="42.836627" lon="0.777830">
        <ele>1726.7</ele>
        <time>2018-11-11T12:55:58Z</time>
      </trkpt>
      <trkpt lat="42.836640" lon="0.777960">
        <ele>1726.5</ele>
        <time>2018-11-11T12:56:06Z</time>
      </trkpt>
      <trkpt lat="42.836647" lon="0.778086">
        <ele>1726.3</ele>
        <time>2018-11-11T12:56:14Z</time>
      </trkpt>
      <trkpt lat="42.836666" lon="0.778219">
        <ele>1726.3</ele>
        <time>2018-11-11T12:56:22Z</time>
      </trkpt>
      <trkpt lat="42.836692" lon="0.778341">
        <ele>1726.1</ele>
        <time>2018-11-11T12:56:30Z</time>
      </trkpt>
      <trkpt lat="42.836708" lon="0.778479">
        <ele>1726.3</ele>
        <time>2018-11-11T12:56:39Z</time>
      </trkpt>
      <trkpt lat="42.836709" lon="0.778615">
        <ele>1726.2</ele>
        <time>2018-11-11T12:56:47Z</time>
      </trkpt>
      <trkpt lat="42.836722" lon="0.778740">
        <ele>1726.4</ele>
        <time>2018-11-11T12:56:55Z</time>
      </trkpt>
      <trkpt lat="42.836750" lon="0.778862">
        <ele>1726.2</ele>
        <time>2018-11-11T12:57:04Z</time>
      </trkpt>
      <trkpt lat="42.836763" lon="0.778996">
        <ele>1726.3</ele>
        <time>2018-11-11T12:57:16Z</time>
      </trkpt>
      <trkpt lat="42.836761" lon="0.779126">
        <ele>1726.3</ele>
        <time>2018-11-11T12:57:26Z</time>
      </trkpt>
      <trkpt lat="42.836755" lon="0.779253">
        <ele>1726.8</ele>
        <time>2018-11-11T12:57:41Z</time>
      </trkpt>
      <trkpt lat="42.836737" lon="0.779410">
        <ele>1726.8</ele>
        <time>2018-11-11T12:57:54Z</time>
      </trkpt>
      <trkpt lat="42.836731" lon="0.779551">
        <ele>1727.1</ele>
        <time>2018-11-11T12:58:06Z</time>
      </trkpt>
      <trkpt lat="42.836714" lon="0.779702">
        <ele>1728.1</ele>
        <time>2018-11-11T12:58:19Z</time>
      </trkpt>
      <trkpt lat="42.836693" lon="0.779810">
        <ele>1728.4</ele>
        <time>2018-11-11T12:58:43Z</time>
      </trkpt>
      <trkpt lat="42.836670" lon="0.779948">
        <ele>1728.2</ele>
        <time>2018-11-11T12:58:54Z</time>
      </trkpt>
      <trkpt lat="42.836670" lon="0.780081">
        <ele>1728.3</ele>
        <time>2018-11-11T12:59:03Z</time>
      </trkpt>
      <trkpt lat="42.836668" lon="0.780227">
        <ele>1728.6</ele>
        <time>2018-11-11T12:59:13Z</time>
      </trkpt>
      <trkpt lat="42.836651" lon="0.780361">
        <ele>1728.8</ele>
        <time>2018-11-11T12:59:24Z</time>
      </trkpt>
      <trkpt lat="42.836665" lon="0.780495">
        <ele>1729.3</ele>
        <time>2018-11-11T12:59:33Z</time>
      </trkpt>
      <trkpt lat="42.836690" lon="0.780639">
        <ele>1729.4</ele>
        <time>2018-11-11T12:59:41Z</time>
      </trkpt>
      <trkpt lat="42.836686" lon="0.780770">
        <ele>1729.4</ele>
        <time>2018-11-11T12:59:49Z</time>
      </trkpt>
      <trkpt lat="42.836681" lon="0.780908">
        <ele>1729.3</ele>
        <time>2018-11-11T12:59:57Z</time>
      </trkpt>
      <trkpt lat="42.836665" lon="0.781047">
        <ele>1728.8</ele>
        <time>2018-11-11T13:00:06Z</time>
      </trkpt>
      <trkpt lat="42.836641" lon="0.781177">
        <ele>1728.5</ele>
        <time>2018-11-11T13:00:15Z</time>
      </trkpt>
      <trkpt lat="42.836617" lon="0.781311">
        <ele>1727.9</ele>
        <time>2018-11-11T13:00:25Z</time>
      </trkpt>
      <trkpt lat="42.836631" lon="0.781448">
        <ele>1727.4</ele>
        <time>2018-11-11T13:00:34Z</time>
      </trkpt>
      <trkpt lat="42.836661" lon="0.781585">
        <ele>1727.1</ele>
        <time>2018-11-11T13:00:43Z</time>
      </trkpt>
      <trkpt lat="42.836696" lon="0.781742">
        <ele>1726.9</ele>
        <time>2018-11-11T13:00:52Z</time>
      </trkpt>
      <trkpt lat="42.836669" lon="0.781879">
        <ele>1727.9</ele>
        <time>2018-11-11T13:01:03Z</time>
      </trkpt>
      <trkpt lat="42.836639" lon="0.782007">
        <ele>1730.4</ele>
        <time>2018-11-11T13:01:17Z</time>
      </trkpt>
      <trkpt lat="42.836613" lon="0.782152">
        <ele>1731.3</ele>
        <time>2018-11-11T13:01:27Z</time>
      </trkpt>
      <trkpt lat="42.836588" lon="0.782293">
        <ele>1731.0</ele>
        <time>2018-11-11T13:01:36Z</time>
      </trkpt>
      <trkpt lat="42.836595" lon="0.782424">
        <ele>1731.5</ele>
        <time>2018-11-11T13:01:45Z</time>
      </trkpt>
      <trkpt lat="42.836617" lon="0.782542">
        <ele>1733.2</ele>
        <time>2018-11-11T13:01:58Z</time>
      </trkpt>
      <trkpt lat="42.836633" lon="0.782662">
        <ele>1733.4</ele>
        <time>2018-11-11T13:02:06Z</time>
      </trkpt>
      <trkpt lat="42.836650" lon="0.782791">
        <ele>1733.9</ele>
        <time>2018-11-11T13:02:13Z</time>
      </trkpt>
      <trkpt lat="42.836640" lon="0.782923">
        <ele>1734.3</ele>
        <time>2018-11-11T13:02:21Z</time>
      </trkpt>
      <trkpt lat="42.836631" lon="0.783063">
        <ele>1733.8</ele>
        <time>2018-11-11T13:02:30Z</time>
      </trkpt>
      <trkpt lat="42.836622" lon="0.783199">
        <ele>1734.4</ele>
        <time>2018-11-11T13:02:39Z</time>
      </trkpt>
      <trkpt lat="42.836643" lon="0.783335">
        <ele>1735.0</ele>
        <time>2018-11-11T13:03:01Z</time>
      </trkpt>
      <trkpt lat="42.836643" lon="0.783453">
        <ele>1734.8</ele>
        <time>2018-11-11T13:03:10Z</time>
      </trkpt>
      <trkpt lat="42.836638" lon="0.783579">
        <ele>1734.5</ele>
        <time>2018-11-11T13:03:18Z</time>
      </trkpt>
      <trkpt lat="42.836621" lon="0.783717">
        <ele>1734.3</ele>
        <time>2018-11-11T13:03:27Z</time>
      </trkpt>
      <trkpt lat="42.836647" lon="0.783840">
        <ele>1734.0</ele>
        <time>2018-11-11T13:03:35Z</time>
      </trkpt>
      <trkpt lat="42.836673" lon="0.783974">
        <ele>1733.7</ele>
        <time>2018-11-11T13:03:43Z</time>
      </trkpt>
      <trkpt lat="42.836677" lon="0.784108">
        <ele>1734.0</ele>
        <time>2018-11-11T13:03:52Z</time>
      </trkpt>
      <trkpt lat="42.836660" lon="0.784241">
        <ele>1733.4</ele>
        <time>2018-11-11T13:04:01Z</time>
      </trkpt>
      <trkpt lat="42.836661" lon="0.784404">
        <ele>1732.3</ele>
        <time>2018-11-11T13:04:10Z</time>
      </trkpt>
      <trkpt lat="42.836637" lon="0.784537">
        <ele>1731.7</ele>
        <time>2018-11-11T13:04:19Z</time>
      </trkpt>
      <trkpt lat="42.836622" lon="0.784671">
        <ele>1731.7</ele>
        <time>2018-11-11T13:04:28Z</time>
      </trkpt>
      <trkpt lat="42.836611" lon="0.784818">
        <ele>1732.4</ele>
        <time>2018-11-11T13:04:37Z</time>
      </trkpt>
      <trkpt lat="42.836616" lon="0.784949">
        <ele>1733.2</ele>
        <time>2018-11-11T13:04:47Z</time>
      </trkpt>
      <trkpt lat="42.836618" lon="0.785093">
        <ele>1734.3</ele>
        <time>2018-11-11T13:04:57Z</time>
      </trkpt>
      <trkpt lat="42.836592" lon="0.785223">
        <ele>1735.6</ele>
        <time>2018-11-11T13:05:07Z</time>
      </trkpt>
      <trkpt lat="42.836536" lon="0.785328">
        <ele>1736.0</ele>
        <time>2018-11-11T13:05:17Z</time>
      </trkpt>
      <trkpt lat="42.836463" lon="0.785446">
        <ele>1735.7</ele>
        <time>2018-11-11T13:05:28Z</time>
      </trkpt>
      <trkpt lat="42.836400" lon="0.785555">
        <ele>1735.2</ele>
        <time>2018-11-11T13:05:37Z</time>
      </trkpt>
      <trkpt lat="42.836382" lon="0.785687">
        <ele>1735.5</ele>
        <time>2018-11-11T13:05:45Z</time>
      </trkpt>
      <trkpt lat="42.836369" lon="0.785806">
        <ele>1736.3</ele>
        <time>2018-11-11T13:05:53Z</time>
      </trkpt>
      <trkpt lat="42.836353" lon="0.785940">
        <ele>1736.7</ele>
        <time>2018-11-11T13:06:01Z</time>
      </trkpt>
      <trkpt lat="42.836339" lon="0.786065">
        <ele>1737.3</ele>
        <time>2018-11-11T13:06:11Z</time>
      </trkpt>
      <trkpt lat="42.836387" lon="0.786176">
        <ele>1738.2</ele>
        <time>2018-11-11T13:06:57Z</time>
        <name>Col</name>
      </trkpt>
      <trkpt lat="42.836459" lon="0.786272">
        <ele>1737.2</ele>
        <time>2018-11-11T13:07:06Z</time>
      </trkpt>
      <trkpt lat="42.836546" lon="0.786357">
        <ele>1735.6</ele>
        <time>2018-11-11T13:07:15Z</time>
      </trkpt>
      <trkpt lat="42.836633" lon="0.786418">
        <ele>1734.8</ele>
        <time>2018-11-11T13:07:23Z</time>
      </trkpt>
      <trkpt lat="42.836680" lon="0.786508">
        <ele>1734.2</ele>
        <time>2018-11-11T13:07:32Z</time>
      </trkpt>
      <trkpt lat="42.836758" lon="0.786590">
        <ele>1734.1</ele>
        <time>2018-11-11T13:07:41Z</time>
      </trkpt>
      <trkpt lat="42.836823" lon="0.786682">
        <ele>1733.8</ele>
        <time>2018-11-11T13:07:50Z</time>
      </trkpt>
      <trkpt lat="42.836890" lon="0.786765">
        <ele>1732.8</ele>
        <time>2018-11-11T13:07:59Z</time>
      </trkpt>
      <trkpt lat="42.836953" lon="0.786871">
        <ele>1731.2</ele>
        <time>2018-11-11T13:08:08Z</time>
      </trkpt>
      <trkpt lat="42.837024" lon="0.786988">
        <ele>1730.6</ele>
        <time>2018-11-11T13:08:18Z</time>
      </trkpt>
      <trkpt lat="42.837069" lon="0.787105">
        <ele>1729.6</ele>
        <time>2018-11-11T13:08:27Z</time>
      </trkpt>
      <trkpt lat="42.837112" lon="0.787229">
        <ele>1727.5</ele>
        <time>2018-11-11T13:08:37Z</time>
      </trkpt>
      <trkpt lat="42.837156" lon="0.787350">
        <ele>1726.2</ele>
        <time>2018-11-11T13:08:46Z</time>
      </trkpt>
      <trkpt lat="42.837225" lon="0.787376">
        <ele>1724.5</ele>
        <time>2018-11-11T13:08:56Z</time>
      </trkpt>
      <trkpt lat="42.837330" lon="0.787376">
        <ele>1723.9</ele>
        <time>2018-11-11T13:09:07Z</time>
      </trkpt>
      <trkpt lat="42.837406" lon="0.787432">
        <ele>1724.8</ele>
        <time>2018-11-11T13:09:16Z</time>
      </trkpt>
      <trkpt lat="42.837463" lon="0.787510">
        <ele>1726.2</ele>
        <time>2018-11-11T13:09:24Z</time>
      </trkpt>
      <trkpt lat="42.837470" lon="0.787624">
        <ele>1727.7</ele>
        <time>2018-11-11T13:09:35Z</time>
      </trkpt>
      <trkpt lat="42.837501" lon="0.787723">
        <ele>1727.7</ele>
        <time>2018-11-11T13:11:15Z</time>
      </trkpt>
      <trkpt lat="42.837519" lon="0.787847">
        <ele>1727.8</ele>
        <time>2018-11-11T13:11:24Z</time>
      </trkpt>
      <trkpt lat="42.837584" lon="0.787952">
        <ele>1725.9</ele>
        <time>2018-11-11T13:11:35Z</time>
      </trkpt>
      <trkpt lat="42.837668" lon="0.788045">
        <ele>1723.9</ele>
        <time>2018-11-11T13:11:47Z</time>
      </trkpt>
      <trkpt lat="42.837738" lon="0.788136">
        <ele>1721.7</ele>
        <time>2018-11-11T13:11:58Z</time>
      </trkpt>
      <trkpt lat="42.837808" lon="0.788217">
        <ele>1720.3</ele>
        <time>2018-11-11T13:12:07Z</time>
      </trkpt>
      <trkpt lat="42.837863" lon="0.788320">
        <ele>1718.2</ele>
        <time>2018-11-11T13:12:18Z</time>
      </trkpt>
      <trkpt lat="42.837941" lon="0.788391">
        <ele>1716.7</ele>
        <time>2018-11-11T13:12:28Z</time>
      </trkpt>
      <trkpt lat="42.838009" lon="0.788455">
        <ele>1714.4</ele>
        <time>2018-11-11T13:13:09Z</time>
      </trkpt>
      <trkpt lat="42.838044" lon="0.788541">
        <ele>1713.7</ele>
        <time>2018-11-11T13:13:27Z</time>
      </trkpt>
      <trkpt lat="42.838099" lon="0.788677">
        <ele>1712.3</ele>
        <time>2018-11-11T13:13:39Z</time>
      </trkpt>
      <trkpt lat="42.838148" lon="0.788818">
        <ele>1710.6</ele>
        <time>2018-11-11T13:13:51Z</time>
      </trkpt>
      <trkpt lat="42.838209" lon="0.788921">
        <ele>1710.1</ele>
        <time>2018-11-11T13:14:02Z</time>
      </trkpt>
      <trkpt lat="42.838250" lon="0.789083">
        <ele>1709.2</ele>
        <time>2018-11-11T13:14:13Z</time>
      </trkpt>
      <trkpt lat="42.838293" lon="0.789230">
        <ele>1708.1</ele>
        <time>2018-11-11T13:14:25Z</time>
      </trkpt>
      <trkpt lat="42.838360" lon="0.789358">
        <ele>1706.0</ele>
        <time>2018-11-11T13:14:35Z</time>
      </trkpt>
      <trkpt lat="42.838389" lon="0.789476">
        <ele>1702.7</ele>
        <time>2018-11-11T13:14:52Z</time>
      </trkpt>
      <trkpt lat="42.838416" lon="0.789602">
        <ele>1701.3</ele>
        <time>2018-11-11T13:15:02Z</time>
      </trkpt>
      <trkpt lat="42.838473" lon="0.789682">
        <ele>1698.0</ele>
        <time>2018-11-11T13:15:18Z</time>
      </trkpt>
      <trkpt lat="42.838582" lon="0.789702">
        <ele>1693.7</ele>
        <time>2018-11-11T13:15:37Z</time>
      </trkpt>
      <trkpt lat="42.838654" lon="0.789738">
        <ele>1690.0</ele>
        <time>2018-11-11T13:15:51Z</time>
      </trkpt>
      <trkpt lat="42.838712" lon="0.789804">
        <ele>1686.8</ele>
        <time>2018-11-11T13:16:03Z</time>
      </trkpt>
      <trkpt lat="42.838790" lon="0.789877">
        <ele>1679.1</ele>
        <time>2018-11-11T13:17:22Z</time>
      </trkpt>
      <trkpt lat="42.838893" lon="0.789928">
        <ele>1675.8</ele>
        <time>2018-11-11T13:17:38Z</time>
      </trkpt>
      <trkpt lat="42.838920" lon="0.789866">
        <ele>1671.8</ele>
        <time>2018-11-11T13:17:57Z</time>
      </trkpt>
      <trkpt lat="42.838924" lon="0.789702">
        <ele>1668.4</ele>
        <time>2018-11-11T13:18:24Z</time>
      </trkpt>
      <trkpt lat="42.838997" lon="0.789722">
        <ele>1662.2</ele>
        <time>2018-11-11T13:21:21Z</time>
      </trkpt>
      <trkpt lat="42.839011" lon="0.789748">
        <ele>1662.4</ele>
        <time>2018-11-11T13:21:52Z</time>
      </trkpt>
      <trkpt lat="42.839125" lon="0.789882">
        <ele>1660.1</ele>
        <time>2018-11-11T13:22:09Z</time>
      </trkpt>
      <trkpt lat="42.839144" lon="0.790015">
        <ele>1659.1</ele>
        <time>2018-11-11T13:22:37Z</time>
      </trkpt>
      <trkpt lat="42.839125" lon="0.790128">
        <ele>1660.2</ele>
        <time>2018-11-11T13:22:55Z</time>
      </trkpt>
      <trkpt lat="42.839127" lon="0.790277">
        <ele>1662.0</ele>
        <time>2018-11-11T13:23:06Z</time>
      </trkpt>
      <trkpt lat="42.839195" lon="0.790383">
        <ele>1661.2</ele>
        <time>2018-11-11T13:23:16Z</time>
      </trkpt>
      <trkpt lat="42.839263" lon="0.790461">
        <ele>1660.9</ele>
        <time>2018-11-11T13:23:25Z</time>
      </trkpt>
      <trkpt lat="42.839344" lon="0.790446">
        <ele>1661.0</ele>
        <time>2018-11-11T13:23:36Z</time>
      </trkpt>
      <trkpt lat="42.839437" lon="0.790509">
        <ele>1661.6</ele>
        <time>2018-11-11T13:23:49Z</time>
      </trkpt>
      <trkpt lat="42.839539" lon="0.790484">
        <ele>1662.0</ele>
        <time>2018-11-11T13:24:01Z</time>
      </trkpt>
      <trkpt lat="42.839645" lon="0.790492">
        <ele>1660.8</ele>
        <time>2018-11-11T13:24:14Z</time>
      </trkpt>
      <trkpt lat="42.839743" lon="0.790502">
        <ele>1661.7</ele>
        <time>2018-11-11T13:24:27Z</time>
      </trkpt>
      <trkpt lat="42.839833" lon="0.790503">
        <ele>1661.8</ele>
        <time>2018-11-11T13:24:36Z</time>
      </trkpt>
      <trkpt lat="42.839929" lon="0.790499">
        <ele>1661.6</ele>
        <time>2018-11-11T13:24:46Z</time>
      </trkpt>
      <trkpt lat="42.840024" lon="0.790470">
        <ele>1660.8</ele>
        <time>2018-11-11T13:24:56Z</time>
      </trkpt>
      <trkpt lat="42.840122" lon="0.790459">
        <ele>1660.5</ele>
        <time>2018-11-11T13:25:06Z</time>
      </trkpt>
      <trkpt lat="42.840220" lon="0.790478">
        <ele>1661.5</ele>
        <time>2018-11-11T13:25:25Z</time>
      </trkpt>
      <trkpt lat="42.840328" lon="0.790451">
        <ele>1662.4</ele>
        <time>2018-11-11T13:25:36Z</time>
      </trkpt>
      <trkpt lat="42.840419" lon="0.790392">
        <ele>1663.0</ele>
        <time>2018-11-11T13:25:45Z</time>
      </trkpt>
      <trkpt lat="42.840506" lon="0.790404">
        <ele>1662.6</ele>
        <time>2018-11-11T13:26:00Z</time>
      </trkpt>
      <trkpt lat="42.840601" lon="0.790380">
        <ele>1662.7</ele>
        <time>2018-11-11T13:26:11Z</time>
      </trkpt>
      <trkpt lat="42.840672" lon="0.790371">
        <ele>1663.6</ele>
        <time>2018-11-11T13:27:00Z</time>
      </trkpt>
      <trkpt lat="42.840777" lon="0.790362">
        <ele>1664.7</ele>
        <time>2018-11-11T13:27:12Z</time>
      </trkpt>
      <trkpt lat="42.840859" lon="0.790323">
        <ele>1666.2</ele>
        <time>2018-11-11T13:27:49Z</time>
      </trkpt>
      <trkpt lat="42.840949" lon="0.790283">
        <ele>1666.6</ele>
        <time>2018-11-11T13:27:59Z</time>
      </trkpt>
      <trkpt lat="42.841036" lon="0.790237">
        <ele>1667.0</ele>
        <time>2018-11-11T13:28:07Z</time>
      </trkpt>
      <trkpt lat="42.841131" lon="0.790221">
        <ele>1667.1</ele>
        <time>2018-11-11T13:28:16Z</time>
      </trkpt>
      <trkpt lat="42.841217" lon="0.790181">
        <ele>1667.7</ele>
        <time>2018-11-11T13:28:30Z</time>
      </trkpt>
      <trkpt lat="42.841317" lon="0.790195">
        <ele>1668.2</ele>
        <time>2018-11-11T13:29:23Z</time>
      </trkpt>
      <trkpt lat="42.841389" lon="0.790194">
        <ele>1668.2</ele>
        <time>2018-11-11T13:30:02Z</time>
      </trkpt>
      <trkpt lat="42.841483" lon="0.790244">
        <ele>1667.9</ele>
        <time>2018-11-11T13:30:12Z</time>
      </trkpt>
      <trkpt lat="42.841579" lon="0.790307">
        <ele>1666.9</ele>
        <time>2018-11-11T13:30:23Z</time>
      </trkpt>
      <trkpt lat="42.841661" lon="0.790371">
        <ele>1665.8</ele>
        <time>2018-11-11T13:30:33Z</time>
      </trkpt>
      <trkpt lat="42.841725" lon="0.790453">
        <ele>1664.2</ele>
        <time>2018-11-11T13:30:41Z</time>
      </trkpt>
      <trkpt lat="42.841776" lon="0.790539">
        <ele>1663.8</ele>
        <time>2018-11-11T13:30:49Z</time>
      </trkpt>
      <trkpt lat="42.841822" lon="0.790669">
        <ele>1663.9</ele>
        <time>2018-11-11T13:30:59Z</time>
      </trkpt>
      <trkpt lat="42.841868" lon="0.790760">
        <ele>1664.3</ele>
        <time>2018-11-11T13:31:07Z</time>
      </trkpt>
      <trkpt lat="42.841894" lon="0.790884">
        <ele>1664.0</ele>
        <time>2018-11-11T13:31:16Z</time>
      </trkpt>
      <trkpt lat="42.841920" lon="0.791021">
        <ele>1663.8</ele>
        <time>2018-11-11T13:31:25Z</time>
      </trkpt>
      <trkpt lat="42.841923" lon="0.791047">
        <ele>1663.7</ele>
        <time>2018-11-11T13:31:53Z</time>
      </trkpt>
      <trkpt lat="42.841951" lon="0.791169">
        <ele>1663.7</ele>
        <time>2018-11-11T13:32:02Z</time>
      </trkpt>
      <trkpt lat="42.841993" lon="0.791276">
        <ele>1664.2</ele>
        <time>2018-11-11T13:32:11Z</time>
      </trkpt>
      <trkpt lat="42.842046" lon="0.791392">
        <ele>1664.7</ele>
        <time>2018-11-11T13:32:20Z</time>
      </trkpt>
      <trkpt lat="42.842068" lon="0.791554">
        <ele>1665.7</ele>
        <time>2018-11-11T13:32:31Z</time>
      </trkpt>
      <trkpt lat="42.842111" lon="0.791660">
        <ele>1666.3</ele>
        <time>2018-11-11T13:32:40Z</time>
      </trkpt>
      <trkpt lat="42.842160" lon="0.791779">
        <ele>1667.2</ele>
        <time>2018-11-11T13:32:50Z</time>
      </trkpt>
      <trkpt lat="42.842163" lon="0.791917">
        <ele>1667.6</ele>
        <time>2018-11-11T13:32:59Z</time>
        <name>Cabane Courrau Grand</name>
      </trkpt>
      <trkpt lat="42.842237" lon="0.791924">
        <ele>1664.7</ele>
        <time>2018-11-11T13:44:47Z</time>
      </trkpt>
      <trkpt lat="42.842321" lon="0.791910">
        <ele>1661.9</ele>
        <time>2018-11-11T13:45:01Z</time>
      </trkpt>
      <trkpt lat="42.842411" lon="0.791879">
        <ele>1659.8</ele>
        <time>2018-11-11T13:45:11Z</time>
      </trkpt>
      <trkpt lat="42.842500" lon="0.791868">
        <ele>1657.7</ele>
        <time>2018-11-11T13:45:21Z</time>
      </trkpt>
      <trkpt lat="42.842584" lon="0.791842">
        <ele>1655.0</ele>
        <time>2018-11-11T13:45:32Z</time>
      </trkpt>
      <trkpt lat="42.842664" lon="0.791793">
        <ele>1652.1</ele>
        <time>2018-11-11T13:45:50Z</time>
      </trkpt>
      <trkpt lat="42.842745" lon="0.791785">
        <ele>1650.1</ele>
        <time>2018-11-11T13:46:12Z</time>
      </trkpt>
      <trkpt lat="42.842819" lon="0.791826">
        <ele>1648.2</ele>
        <time>2018-11-11T13:46:26Z</time>
      </trkpt>
      <trkpt lat="42.842900" lon="0.791779">
        <ele>1645.6</ele>
        <time>2018-11-11T13:46:41Z</time>
      </trkpt>
      <trkpt lat="42.842959" lon="0.791650">
        <ele>1646.3</ele>
        <time>2018-11-11T13:46:53Z</time>
      </trkpt>
      <trkpt lat="42.843019" lon="0.791534">
        <ele>1645.9</ele>
        <time>2018-11-11T13:47:05Z</time>
      </trkpt>
      <trkpt lat="42.843012" lon="0.791416">
        <ele>1644.0</ele>
        <time>2018-11-11T13:47:18Z</time>
      </trkpt>
      <trkpt lat="42.842988" lon="0.791276">
        <ele>1641.7</ele>
        <time>2018-11-11T13:47:30Z</time>
      </trkpt>
      <trkpt lat="42.842964" lon="0.791137">
        <ele>1638.9</ele>
        <time>2018-11-11T13:47:42Z</time>
      </trkpt>
      <trkpt lat="42.842991" lon="0.791019">
        <ele>1635.6</ele>
        <time>2018-11-11T13:47:53Z</time>
      </trkpt>
      <trkpt lat="42.843037" lon="0.790921">
        <ele>1631.9</ele>
        <time>2018-11-11T13:48:06Z</time>
      </trkpt>
      <trkpt lat="42.843097" lon="0.790805">
        <ele>1629.6</ele>
        <time>2018-11-11T13:48:17Z</time>
      </trkpt>
      <trkpt lat="42.843143" lon="0.790693">
        <ele>1626.9</ele>
        <time>2018-11-11T13:48:30Z</time>
      </trkpt>
      <trkpt lat="42.843188" lon="0.790577">
        <ele>1625.5</ele>
        <time>2018-11-11T13:48:40Z</time>
      </trkpt>
      <trkpt lat="42.843204" lon="0.790455">
        <ele>1622.3</ele>
        <time>2018-11-11T13:48:58Z</time>
      </trkpt>
      <trkpt lat="42.843221" lon="0.790321">
        <ele>1619.7</ele>
        <time>2018-11-11T13:49:12Z</time>
      </trkpt>
      <trkpt lat="42.843284" lon="0.790291">
        <ele>1610.2</ele>
        <time>2018-11-11T14:05:24Z</time>
      </trkpt>
      <trkpt lat="42.843293" lon="0.790225">
        <ele>1609.7</ele>
        <time>2018-11-11T14:06:15Z</time>
      </trkpt>
      <trkpt lat="42.843394" lon="0.790208">
        <ele>1607.9</ele>
        <time>2018-11-11T14:06:26Z</time>
      </trkpt>
      <trkpt lat="42.843467" lon="0.790196">
        <ele>1605.5</ele>
        <time>2018-11-11T14:06:36Z</time>
      </trkpt>
      <trkpt lat="42.843543" lon="0.790147">
        <ele>1603.6</ele>
        <time>2018-11-11T14:06:49Z</time>
      </trkpt>
      <trkpt lat="42.843556" lon="0.790025">
        <ele>1602.7</ele>
        <time>2018-11-11T14:07:00Z</time>
      </trkpt>
      <trkpt lat="42.843579" lon="0.789885">
        <ele>1599.1</ele>
        <time>2018-11-11T14:07:12Z</time>
      </trkpt>
      <trkpt lat="42.843594" lon="0.789746">
        <ele>1595.9</ele>
        <time>2018-11-11T14:07:23Z</time>
      </trkpt>
      <trkpt lat="42.843607" lon="0.789607">
        <ele>1592.7</ele>
        <time>2018-11-11T14:07:33Z</time>
      </trkpt>
      <trkpt lat="42.843614" lon="0.789483">
        <ele>1589.7</ele>
        <time>2018-11-11T14:07:42Z</time>
      </trkpt>
      <trkpt lat="42.843605" lon="0.789362">
        <ele>1586.0</ele>
        <time>2018-11-11T14:08:01Z</time>
      </trkpt>
      <trkpt lat="42.843586" lon="0.789238">
        <ele>1583.8</ele>
        <time>2018-11-11T14:08:11Z</time>
      </trkpt>
      <trkpt lat="42.843567" lon="0.789113">
        <ele>1580.5</ele>
        <time>2018-11-11T14:08:21Z</time>
      </trkpt>
      <trkpt lat="42.843565" lon="0.788998">
        <ele>1577.3</ele>
        <time>2018-11-11T14:08:31Z</time>
      </trkpt>
      <trkpt lat="42.843554" lon="0.788864">
        <ele>1573.8</ele>
        <time>2018-11-11T14:08:43Z</time>
      </trkpt>
      <trkpt lat="42.843556" lon="0.788720">
        <ele>1570.4</ele>
        <time>2018-11-11T14:08:56Z</time>
      </trkpt>
      <trkpt lat="42.843551" lon="0.788591">
        <ele>1567.7</ele>
        <time>2018-11-11T14:09:08Z</time>
      </trkpt>
      <trkpt lat="42.843528" lon="0.788478">
        <ele>1564.1</ele>
        <time>2018-11-11T14:09:21Z</time>
      </trkpt>
      <trkpt lat="42.843502" lon="0.788350">
        <ele>1560.4</ele>
        <time>2018-11-11T14:09:34Z</time>
      </trkpt>
      <trkpt lat="42.843453" lon="0.788256">
        <ele>1556.5</ele>
        <time>2018-11-11T14:09:49Z</time>
      </trkpt>
      <trkpt lat="42.843407" lon="0.788143">
        <ele>1552.8</ele>
        <time>2018-11-11T14:10:02Z</time>
      </trkpt>
      <trkpt lat="42.843382" lon="0.788013">
        <ele>1548.5</ele>
        <time>2018-11-11T14:10:15Z</time>
      </trkpt>
      <trkpt lat="42.843364" lon="0.787897">
        <ele>1544.9</ele>
        <time>2018-11-11T14:10:29Z</time>
      </trkpt>
      <trkpt lat="42.843358" lon="0.787782">
        <ele>1542.2</ele>
        <time>2018-11-11T14:10:42Z</time>
      </trkpt>
      <trkpt lat="42.843304" lon="0.787688">
        <ele>1538.2</ele>
        <time>2018-11-11T14:10:57Z</time>
      </trkpt>
      <trkpt lat="42.843291" lon="0.787574">
        <ele>1534.5</ele>
        <time>2018-11-11T14:11:57Z</time>
      </trkpt>
      <trkpt lat="42.843266" lon="0.787435">
        <ele>1531.4</ele>
        <time>2018-11-11T14:12:09Z</time>
      </trkpt>
      <trkpt lat="42.843244" lon="0.787322">
        <ele>1528.4</ele>
        <time>2018-11-11T14:12:20Z</time>
      </trkpt>
      <trkpt lat="42.843212" lon="0.787204">
        <ele>1525.1</ele>
        <time>2018-11-11T14:12:32Z</time>
      </trkpt>
      <trkpt lat="42.843187" lon="0.787065">
        <ele>1521.5</ele>
        <time>2018-11-11T14:12:43Z</time>
      </trkpt>
      <trkpt lat="42.843161" lon="0.786939">
        <ele>1518.8</ele>
        <time>2018-11-11T14:12:53Z</time>
      </trkpt>
      <trkpt lat="42.843130" lon="0.786831">
        <ele>1515.6</ele>
        <time>2018-11-11T14:13:05Z</time>
      </trkpt>
      <trkpt lat="42.843111" lon="0.786696">
        <ele>1513.2</ele>
        <time>2018-11-11T14:13:17Z</time>
      </trkpt>
      <trkpt lat="42.843066" lon="0.786592">
        <ele>1510.7</ele>
        <time>2018-11-11T14:13:27Z</time>
      </trkpt>
      <trkpt lat="42.843048" lon="0.786463">
        <ele>1507.8</ele>
        <time>2018-11-11T14:13:37Z</time>
      </trkpt>
      <trkpt lat="42.843017" lon="0.786346">
        <ele>1505.2</ele>
        <time>2018-11-11T14:14:15Z</time>
      </trkpt>
      <trkpt lat="42.842984" lon="0.786226">
        <ele>1502.9</ele>
        <time>2018-11-11T14:14:24Z</time>
      </trkpt>
      <trkpt lat="42.842944" lon="0.786109">
        <ele>1500.7</ele>
        <time>2018-11-11T14:14:33Z</time>
      </trkpt>
      <trkpt lat="42.842907" lon="0.785983">
        <ele>1498.2</ele>
        <time>2018-11-11T14:14:42Z</time>
      </trkpt>
      <trkpt lat="42.842881" lon="0.785859">
        <ele>1495.3</ele>
        <time>2018-11-11T14:14:51Z</time>
      </trkpt>
      <trkpt lat="42.842863" lon="0.785730">
        <ele>1492.2</ele>
        <time>2018-11-11T14:15:02Z</time>
      </trkpt>
      <trkpt lat="42.842813" lon="0.785607">
        <ele>1488.6</ele>
        <time>2018-11-11T14:15:13Z</time>
      </trkpt>
      <trkpt lat="42.842762" lon="0.785477">
        <ele>1485.0</ele>
        <time>2018-11-11T14:15:23Z</time>
      </trkpt>
      <trkpt lat="42.842720" lon="0.785355">
        <ele>1481.8</ele>
        <time>2018-11-11T14:15:32Z</time>
      </trkpt>
      <trkpt lat="42.842683" lon="0.785240">
        <ele>1478.1</ele>
        <time>2018-11-11T14:15:41Z</time>
      </trkpt>
      <trkpt lat="42.842655" lon="0.785109">
        <ele>1474.6</ele>
        <time>2018-11-11T14:15:53Z</time>
      </trkpt>
      <trkpt lat="42.842656" lon="0.784970">
        <ele>1472.2</ele>
        <time>2018-11-11T14:16:04Z</time>
      </trkpt>
      <trkpt lat="42.842636" lon="0.784849">
        <ele>1470.6</ele>
        <time>2018-11-11T14:16:14Z</time>
      </trkpt>
      <trkpt lat="42.842646" lon="0.784712">
        <ele>1469.2</ele>
        <time>2018-11-11T14:16:27Z</time>
      </trkpt>
      <trkpt lat="42.842676" lon="0.784587">
        <ele>1468.2</ele>
        <time>2018-11-11T14:16:38Z</time>
      </trkpt>
      <trkpt lat="42.842701" lon="0.784455">
        <ele>1467.2</ele>
        <time>2018-11-11T14:16:50Z</time>
      </trkpt>
      <trkpt lat="42.842749" lon="0.784301">
        <ele>1467.2</ele>
        <time>2018-11-11T14:17:02Z</time>
      </trkpt>
      <trkpt lat="42.842734" lon="0.784153">
        <ele>1466.4</ele>
        <time>2018-11-11T14:17:11Z</time>
        <name>Cabane Salontere</name>
      </trkpt>
      <trkpt lat="42.842765" lon="0.784034">
        <ele>1464.8</ele>
        <time>2018-11-11T14:22:15Z</time>
      </trkpt>
      <trkpt lat="42.842770" lon="0.783842">
        <ele>1464.4</ele>
        <time>2018-11-11T14:22:29Z</time>
      </trkpt>
      <trkpt lat="42.842779" lon="0.783651">
        <ele>1463.2</ele>
        <time>2018-11-11T14:22:41Z</time>
      </trkpt>
      <trkpt lat="42.842781" lon="0.783507">
        <ele>1461.1</ele>
        <time>2018-11-11T14:22:51Z</time>
      </trkpt>
      <trkpt lat="42.842797" lon="0.783384">
        <ele>1459.0</ele>
        <time>2018-11-11T14:23:00Z</time>
      </trkpt>
      <trkpt lat="42.842871" lon="0.783264">
        <ele>1456.1</ele>
        <time>2018-11-11T14:23:10Z</time>
      </trkpt>
      <trkpt lat="42.842898" lon="0.783109">
        <ele>1454.0</ele>
        <time>2018-11-11T14:23:21Z</time>
      </trkpt>
      <trkpt lat="42.842939" lon="0.782939">
        <ele>1450.4</ele>
        <time>2018-11-11T14:23:34Z</time>
      </trkpt>
      <trkpt lat="42.842934" lon="0.782827">
        <ele>1447.3</ele>
        <time>2018-11-11T14:23:45Z</time>
      </trkpt>
      <trkpt lat="42.842938" lon="0.782704">
        <ele>1443.2</ele>
        <time>2018-11-11T14:23:59Z</time>
      </trkpt>
      <trkpt lat="42.842955" lon="0.782551">
        <ele>1438.2</ele>
        <time>2018-11-11T14:24:19Z</time>
      </trkpt>
      <trkpt lat="42.842943" lon="0.782380">
        <ele>1434.8</ele>
        <time>2018-11-11T14:24:33Z</time>
      </trkpt>
      <trkpt lat="42.842976" lon="0.782232">
        <ele>1431.1</ele>
        <time>2018-11-11T14:24:46Z</time>
      </trkpt>
      <trkpt lat="42.842979" lon="0.782068">
        <ele>1427.0</ele>
        <time>2018-11-11T14:25:01Z</time>
      </trkpt>
      <trkpt lat="42.843028" lon="0.781897">
        <ele>1423.2</ele>
        <time>2018-11-11T14:25:14Z</time>
      </trkpt>
      <trkpt lat="42.843063" lon="0.781769">
        <ele>1419.9</ele>
        <time>2018-11-11T14:25:26Z</time>
      </trkpt>
      <trkpt lat="42.843133" lon="0.781634">
        <ele>1415.4</ele>
        <time>2018-11-11T14:25:41Z</time>
      </trkpt>
      <trkpt lat="42.843153" lon="0.781493">
        <ele>1412.5</ele>
        <time>2018-11-11T14:25:53Z</time>
      </trkpt>
      <trkpt lat="42.843225" lon="0.781377">
        <ele>1408.7</ele>
        <time>2018-11-11T14:26:09Z</time>
      </trkpt>
      <trkpt lat="42.843264" lon="0.781311">
        <ele>1405.8</ele>
        <time>2018-11-11T14:26:56Z</time>
      </trkpt>
      <trkpt lat="42.843279" lon="0.781129">
        <ele>1402.4</ele>
        <time>2018-11-11T14:27:11Z</time>
      </trkpt>
      <trkpt lat="42.843323" lon="0.780963">
        <ele>1398.5</ele>
        <time>2018-11-11T14:27:25Z</time>
      </trkpt>
      <trkpt lat="42.843407" lon="0.780837">
        <ele>1395.0</ele>
        <time>2018-11-11T14:27:39Z</time>
      </trkpt>
      <trkpt lat="42.843481" lon="0.780751">
        <ele>1391.2</ele>
        <time>2018-11-11T14:27:53Z</time>
      </trkpt>
      <trkpt lat="42.843536" lon="0.780626">
        <ele>1387.3</ele>
        <time>2018-11-11T14:28:07Z</time>
      </trkpt>
      <trkpt lat="42.843609" lon="0.780513">
        <ele>1383.3</ele>
        <time>2018-11-11T14:28:21Z</time>
      </trkpt>
      <trkpt lat="42.843693" lon="0.780379">
        <ele>1379.2</ele>
        <time>2018-11-11T14:28:37Z</time>
      </trkpt>
      <trkpt lat="42.843775" lon="0.780271">
        <ele>1374.7</ele>
        <time>2018-11-11T14:28:54Z</time>
      </trkpt>
      <trkpt lat="42.843850" lon="0.780192">
        <ele>1369.8</ele>
        <time>2018-11-11T14:29:11Z</time>
      </trkpt>
      <trkpt lat="42.843942" lon="0.780105">
        <ele>1366.4</ele>
        <time>2018-11-11T14:29:26Z</time>
      </trkpt>
      <trkpt lat="42.843949" lon="0.780006">
        <ele>1363.7</ele>
        <time>2018-11-11T14:30:08Z</time>
      </trkpt>
      <trkpt lat="42.844034" lon="0.779880">
        <ele>1360.8</ele>
        <time>2018-11-11T14:30:23Z</time>
      </trkpt>
      <trkpt lat="42.844113" lon="0.779768">
        <ele>1358.4</ele>
        <time>2018-11-11T14:30:33Z</time>
      </trkpt>
      <trkpt lat="42.844182" lon="0.779672">
        <ele>1355.0</ele>
        <time>2018-11-11T14:30:46Z</time>
      </trkpt>
      <trkpt lat="42.844252" lon="0.779536">
        <ele>1351.3</ele>
        <time>2018-11-11T14:30:59Z</time>
      </trkpt>
      <trkpt lat="42.844294" lon="0.779435">
        <ele>1348.4</ele>
        <time>2018-11-11T14:31:12Z</time>
      </trkpt>
      <trkpt lat="42.844326" lon="0.779342">
        <ele>1345.7</ele>
        <time>2018-11-11T14:31:28Z</time>
      </trkpt>
      <trkpt lat="42.844365" lon="0.779176">
        <ele>1341.5</ele>
        <time>2018-11-11T14:31:43Z</time>
      </trkpt>
      <trkpt lat="42.844425" lon="0.779038">
        <ele>1338.2</ele>
        <time>2018-11-11T14:31:56Z</time>
      </trkpt>
      <trkpt lat="42.844501" lon="0.778913">
        <ele>1335.4</ele>
        <time>2018-11-11T14:32:08Z</time>
      </trkpt>
      <trkpt lat="42.844575" lon="0.778809">
        <ele>1332.7</ele>
        <time>2018-11-11T14:32:19Z</time>
      </trkpt>
      <trkpt lat="42.844608" lon="0.778673">
        <ele>1329.8</ele>
        <time>2018-11-11T14:32:30Z</time>
      </trkpt>
      <trkpt lat="42.844680" lon="0.778554">
        <ele>1326.2</ele>
        <time>2018-11-11T14:32:41Z</time>
      </trkpt>
      <trkpt lat="42.844756" lon="0.778445">
        <ele>1323.0</ele>
        <time>2018-11-11T14:32:54Z</time>
      </trkpt>
      <trkpt lat="42.844843" lon="0.778338">
        <ele>1319.4</ele>
        <time>2018-11-11T14:33:07Z</time>
      </trkpt>
      <trkpt lat="42.844941" lon="0.778268">
        <ele>1316.2</ele>
        <time>2018-11-11T14:33:19Z</time>
      </trkpt>
      <trkpt lat="42.845047" lon="0.778138">
        <ele>1311.5</ele>
        <time>2018-11-11T14:33:35Z</time>
      </trkpt>
      <trkpt lat="42.845161" lon="0.778019">
        <ele>1307.6</ele>
        <time>2018-11-11T14:33:52Z</time>
      </trkpt>
      <trkpt lat="42.845270" lon="0.777922">
        <ele>1304.6</ele>
        <time>2018-11-11T14:34:04Z</time>
      </trkpt>
      <trkpt lat="42.845316" lon="0.777780">
        <ele>1302.2</ele>
        <time>2018-11-11T14:34:15Z</time>
      </trkpt>
      <trkpt lat="42.845425" lon="0.777705">
        <ele>1299.7</ele>
        <time>2018-11-11T14:34:26Z</time>
      </trkpt>
      <trkpt lat="42.845551" lon="0.777633">
        <ele>1297.1</ele>
        <time>2018-11-11T14:34:39Z</time>
      </trkpt>
      <trkpt lat="42.845642" lon="0.777549">
        <ele>1294.4</ele>
        <time>2018-11-11T14:34:50Z</time>
      </trkpt>
      <trkpt lat="42.845749" lon="0.777450">
        <ele>1292.7</ele>
        <time>2018-11-11T14:35:04Z</time>
      </trkpt>
      <trkpt lat="42.845899" lon="0.777407">
        <ele>1290.8</ele>
        <time>2018-11-11T14:35:19Z</time>
      </trkpt>
      <trkpt lat="42.846013" lon="0.777327">
        <ele>1288.9</ele>
        <time>2018-11-11T14:35:33Z</time>
      </trkpt>
      <trkpt lat="42.846121" lon="0.777260">
        <ele>1285.7</ele>
        <time>2018-11-11T14:35:46Z</time>
      </trkpt>
      <trkpt lat="42.846212" lon="0.777212">
        <ele>1281.5</ele>
        <time>2018-11-11T14:36:02Z</time>
      </trkpt>
      <trkpt lat="42.846335" lon="0.777104">
        <ele>1277.3</ele>
        <time>2018-11-11T14:36:19Z</time>
      </trkpt>
      <trkpt lat="42.846434" lon="0.776986">
        <ele>1273.2</ele>
        <time>2018-11-11T14:36:38Z</time>
      </trkpt>
      <trkpt lat="42.846522" lon="0.776901">
        <ele>1270.5</ele>
        <time>2018-11-11T14:36:54Z</time>
      </trkpt>
      <trkpt lat="42.846646" lon="0.776800">
        <ele>1267.9</ele>
        <time>2018-11-11T14:37:08Z</time>
      </trkpt>
      <trkpt lat="42.846746" lon="0.776667">
        <ele>1264.8</ele>
        <time>2018-11-11T14:37:24Z</time>
      </trkpt>
      <trkpt lat="42.846868" lon="0.776585">
        <ele>1261.3</ele>
        <time>2018-11-11T14:37:39Z</time>
      </trkpt>
      <trkpt lat="42.846990" lon="0.776509">
        <ele>1257.2</ele>
        <time>2018-11-11T14:37:56Z</time>
      </trkpt>
      <trkpt lat="42.847105" lon="0.776439">
        <ele>1254.2</ele>
        <time>2018-11-11T14:38:09Z</time>
      </trkpt>
      <trkpt lat="42.847233" lon="0.776389">
        <ele>1251.6</ele>
        <time>2018-11-11T14:38:22Z</time>
      </trkpt>
      <trkpt lat="42.847345" lon="0.776369">
        <ele>1248.5</ele>
        <time>2018-11-11T14:38:35Z</time>
      </trkpt>
      <trkpt lat="42.847486" lon="0.776272">
        <ele>1244.8</ele>
        <time>2018-11-11T14:38:49Z</time>
      </trkpt>
      <trkpt lat="42.847599" lon="0.776191">
        <ele>1241.1</ele>
        <time>2018-11-11T14:39:03Z</time>
      </trkpt>
      <trkpt lat="42.847729" lon="0.776120">
        <ele>1237.7</ele>
        <time>2018-11-11T14:39:18Z</time>
      </trkpt>
      <trkpt lat="42.847873" lon="0.776056">
        <ele>1233.2</ele>
        <time>2018-11-11T14:39:34Z</time>
      </trkpt>
      <trkpt lat="42.848001" lon="0.775989">
        <ele>1229.7</ele>
        <time>2018-11-11T14:39:49Z</time>
      </trkpt>
      <trkpt lat="42.848128" lon="0.775954">
        <ele>1227.2</ele>
        <time>2018-11-11T14:40:01Z</time>
      </trkpt>
      <trkpt lat="42.848241" lon="0.775863">
        <ele>1224.2</ele>
        <time>2018-11-11T14:40:15Z</time>
      </trkpt>
      <trkpt lat="42.848404" lon="0.775848">
        <ele>1221.2</ele>
        <time>2018-11-11T14:40:28Z</time>
      </trkpt>
      <trkpt lat="42.848501" lon="0.775877">
        <ele>1219.4</ele>
        <time>2018-11-11T14:40:43Z</time>
      </trkpt>
      <trkpt lat="42.848585" lon="0.775814">
        <ele>1218.3</ele>
        <time>2018-11-11T14:41:59Z</time>
      </trkpt>
      <trkpt lat="42.848660" lon="0.775698">
        <ele>1215.6</ele>
        <time>2018-11-11T14:42:15Z</time>
      </trkpt>
      <trkpt lat="42.848749" lon="0.775598">
        <ele>1213.1</ele>
        <time>2018-11-11T14:42:26Z</time>
      </trkpt>
      <trkpt lat="42.848849" lon="0.775545">
        <ele>1211.2</ele>
        <time>2018-11-11T14:42:37Z</time>
      </trkpt>
      <trkpt lat="42.848941" lon="0.775500">
        <ele>1209.4</ele>
        <time>2018-11-11T14:42:47Z</time>
      </trkpt>
      <trkpt lat="42.849041" lon="0.775435">
        <ele>1207.4</ele>
        <time>2018-11-11T14:42:57Z</time>
      </trkpt>
      <trkpt lat="42.849130" lon="0.775358">
        <ele>1205.3</ele>
        <time>2018-11-11T14:43:10Z</time>
      </trkpt>
      <trkpt lat="42.849249" lon="0.775272">
        <ele>1202.1</ele>
        <time>2018-11-11T14:43:23Z</time>
      </trkpt>
      <trkpt lat="42.849359" lon="0.775217">
        <ele>1199.7</ele>
        <time>2018-11-11T14:43:34Z</time>
      </trkpt>
      <trkpt lat="42.849467" lon="0.775170">
        <ele>1197.3</ele>
        <time>2018-11-11T14:43:43Z</time>
      </trkpt>
      <trkpt lat="42.849555" lon="0.775104">
        <ele>1195.4</ele>
        <time>2018-11-11T14:43:51Z</time>
      </trkpt>
      <trkpt lat="42.849604" lon="0.775006">
        <ele>1194.4</ele>
        <time>2018-11-11T14:43:59Z</time>
      </trkpt>
      <trkpt lat="42.849593" lon="0.774887">
        <ele>1193.2</ele>
        <time>2018-11-11T14:44:08Z</time>
      </trkpt>
      <trkpt lat="42.849549" lon="0.774763">
        <ele>1191.6</ele>
        <time>2018-11-11T14:44:17Z</time>
      </trkpt>
      <trkpt lat="42.849532" lon="0.774638">
        <ele>1189.9</ele>
        <time>2018-11-11T14:44:26Z</time>
      </trkpt>
      <trkpt lat="42.849508" lon="0.774513">
        <ele>1188.2</ele>
        <time>2018-11-11T14:44:35Z</time>
        <name>Cabane Courrau Artigue</name>
      </trkpt>
      <trkpt lat="42.849532" lon="0.774429">
        <ele>1185.4</ele>
        <time>2018-11-11T14:44:48Z</time>
      </trkpt>
      <trkpt lat="42.849595" lon="0.774287">
        <ele>1181.3</ele>
        <time>2018-11-11T14:49:28Z</time>
      </trkpt>
      <trkpt lat="42.849690" lon="0.774223">
        <ele>1178.3</ele>
        <time>2018-11-11T14:49:40Z</time>
      </trkpt>
      <trkpt lat="42.849745" lon="0.774094">
        <ele>1174.7</ele>
        <time>2018-11-11T14:49:52Z</time>
      </trkpt>
      <trkpt lat="42.849814" lon="0.773933">
        <ele>1171.2</ele>
        <time>2018-11-11T14:50:05Z</time>
      </trkpt>
      <trkpt lat="42.849949" lon="0.774062">
        <ele>1167.6</ele>
        <time>2018-11-11T14:50:19Z</time>
      </trkpt>
      <trkpt lat="42.850076" lon="0.774101">
        <ele>1164.9</ele>
        <time>2018-11-11T14:50:31Z</time>
      </trkpt>
      <trkpt lat="42.850145" lon="0.774012">
        <ele>1163.9</ele>
        <time>2018-11-11T14:50:45Z</time>
      </trkpt>
      <trkpt lat="42.850154" lon="0.773865">
        <ele>1162.4</ele>
        <time>2018-11-11T14:51:02Z</time>
      </trkpt>
      <trkpt lat="42.850187" lon="0.773719">
        <ele>1161.4</ele>
        <time>2018-11-11T14:51:11Z</time>
      </trkpt>
      <trkpt lat="42.850218" lon="0.773587">
        <ele>1160.4</ele>
        <time>2018-11-11T14:51:20Z</time>
      </trkpt>
      <trkpt lat="42.850268" lon="0.773443">
        <ele>1159.4</ele>
        <time>2018-11-11T14:51:30Z</time>
      </trkpt>
      <trkpt lat="42.850363" lon="0.773344">
        <ele>1158.1</ele>
        <time>2018-11-11T14:51:40Z</time>
      </trkpt>
      <trkpt lat="42.850477" lon="0.773253">
        <ele>1156.8</ele>
        <time>2018-11-11T14:51:50Z</time>
      </trkpt>
      <trkpt lat="42.850570" lon="0.773177">
        <ele>1155.7</ele>
        <time>2018-11-11T14:51:59Z</time>
      </trkpt>
      <trkpt lat="42.850689" lon="0.773105">
        <ele>1154.6</ele>
        <time>2018-11-11T14:52:11Z</time>
      </trkpt>
      <trkpt lat="42.850779" lon="0.773015">
        <ele>1153.9</ele>
        <time>2018-11-11T14:52:22Z</time>
      </trkpt>
      <trkpt lat="42.850884" lon="0.772938">
        <ele>1153.4</ele>
        <time>2018-11-11T14:52:32Z</time>
      </trkpt>
      <trkpt lat="42.851023" lon="0.772851">
        <ele>1152.8</ele>
        <time>2018-11-11T14:52:43Z</time>
      </trkpt>
      <trkpt lat="42.851122" lon="0.772776">
        <ele>1152.2</ele>
        <time>2018-11-11T14:52:53Z</time>
      </trkpt>
      <trkpt lat="42.851242" lon="0.772667">
        <ele>1151.2</ele>
        <time>2018-11-11T14:53:05Z</time>
      </trkpt>
      <trkpt lat="42.851336" lon="0.772570">
        <ele>1150.6</ele>
        <time>2018-11-11T14:53:14Z</time>
      </trkpt>
      <trkpt lat="42.851439" lon="0.772489">
        <ele>1150.1</ele>
        <time>2018-11-11T14:53:24Z</time>
      </trkpt>
      <trkpt lat="42.851537" lon="0.772415">
        <ele>1149.3</ele>
        <time>2018-11-11T14:53:36Z</time>
      </trkpt>
      <trkpt lat="42.851623" lon="0.772308">
        <ele>1148.4</ele>
        <time>2018-11-11T14:53:45Z</time>
      </trkpt>
      <trkpt lat="42.851693" lon="0.772214">
        <ele>1147.3</ele>
        <time>2018-11-11T14:53:54Z</time>
      </trkpt>
      <trkpt lat="42.851769" lon="0.772114">
        <ele>1145.3</ele>
        <time>2018-11-11T14:54:05Z</time>
      </trkpt>
      <trkpt lat="42.851851" lon="0.772045">
        <ele>1143.7</ele>
        <time>2018-11-11T14:54:15Z</time>
      </trkpt>
      <trkpt lat="42.851942" lon="0.771964">
        <ele>1142.2</ele>
        <time>2018-11-11T14:54:24Z</time>
      </trkpt>
      <trkpt lat="42.852026" lon="0.771879">
        <ele>1141.3</ele>
        <time>2018-11-11T14:54:33Z</time>
      </trkpt>
      <trkpt lat="42.852153" lon="0.771797">
        <ele>1140.5</ele>
        <time>2018-11-11T14:54:44Z</time>
      </trkpt>
      <trkpt lat="42.852267" lon="0.771731">
        <ele>1138.9</ele>
        <time>2018-11-11T14:54:56Z</time>
      </trkpt>
      <trkpt lat="42.852375" lon="0.771653">
        <ele>1136.8</ele>
        <time>2018-11-11T14:55:09Z</time>
      </trkpt>
      <trkpt lat="42.852479" lon="0.771551">
        <ele>1135.3</ele>
        <time>2018-11-11T14:55:21Z</time>
      </trkpt>
      <trkpt lat="42.852572" lon="0.771412">
        <ele>1134.3</ele>
        <time>2018-11-11T14:55:36Z</time>
      </trkpt>
      <trkpt lat="42.852592" lon="0.771407">
        <ele>1132.8</ele>
        <time>2018-11-11T14:56:50Z</time>
      </trkpt>
      <trkpt lat="42.852685" lon="0.771308">
        <ele>1132.3</ele>
        <time>2018-11-11T14:57:00Z</time>
      </trkpt>
      <trkpt lat="42.852783" lon="0.771249">
        <ele>1131.2</ele>
        <time>2018-11-11T14:57:09Z</time>
      </trkpt>
      <trkpt lat="42.852891" lon="0.771173">
        <ele>1129.5</ele>
        <time>2018-11-11T14:57:20Z</time>
      </trkpt>
      <trkpt lat="42.853008" lon="0.771111">
        <ele>1128.2</ele>
        <time>2018-11-11T14:57:32Z</time>
      </trkpt>
      <trkpt lat="42.853097" lon="0.770996">
        <ele>1126.8</ele>
        <time>2018-11-11T14:57:42Z</time>
      </trkpt>
      <trkpt lat="42.853199" lon="0.770897">
        <ele>1125.7</ele>
        <time>2018-11-11T14:57:52Z</time>
      </trkpt>
      <trkpt lat="42.853305" lon="0.770884">
        <ele>1124.7</ele>
        <time>2018-11-11T14:58:14Z</time>
      </trkpt>
      <trkpt lat="42.853416" lon="0.770792">
        <ele>1122.5</ele>
        <time>2018-11-11T14:58:28Z</time>
      </trkpt>
      <trkpt lat="42.853524" lon="0.770722">
        <ele>1120.0</ele>
        <time>2018-11-11T14:58:44Z</time>
      </trkpt>
      <trkpt lat="42.853635" lon="0.770676">
        <ele>1117.3</ele>
        <time>2018-11-11T14:59:00Z</time>
      </trkpt>
      <trkpt lat="42.853729" lon="0.770581">
        <ele>1115.5</ele>
        <time>2018-11-11T14:59:16Z</time>
      </trkpt>
      <trkpt lat="42.853812" lon="0.770452">
        <ele>1113.5</ele>
        <time>2018-11-11T14:59:29Z</time>
      </trkpt>
      <trkpt lat="42.853903" lon="0.770346">
        <ele>1111.1</ele>
        <time>2018-11-11T14:59:41Z</time>
      </trkpt>
      <trkpt lat="42.853977" lon="0.770214">
        <ele>1108.1</ele>
        <time>2018-11-11T14:59:53Z</time>
      </trkpt>
      <trkpt lat="42.854057" lon="0.770106">
        <ele>1104.2</ele>
        <time>2018-11-11T15:00:06Z</time>
      </trkpt>
      <trkpt lat="42.854112" lon="0.769986">
        <ele>1101.2</ele>
        <time>2018-11-11T15:00:21Z</time>
      </trkpt>
      <trkpt lat="42.854160" lon="0.769854">
        <ele>1099.1</ele>
        <time>2018-11-11T15:00:33Z</time>
      </trkpt>
      <trkpt lat="42.854263" lon="0.769722">
        <ele>1096.6</ele>
        <time>2018-11-11T15:00:46Z</time>
      </trkpt>
      <trkpt lat="42.854363" lon="0.769626">
        <ele>1094.8</ele>
        <time>2018-11-11T15:00:56Z</time>
      </trkpt>
      <trkpt lat="42.854466" lon="0.769508">
        <ele>1093.6</ele>
        <time>2018-11-11T15:01:09Z</time>
      </trkpt>
      <trkpt lat="42.854545" lon="0.769364">
        <ele>1092.2</ele>
        <time>2018-11-11T15:01:20Z</time>
      </trkpt>
      <trkpt lat="42.854631" lon="0.769274">
        <ele>1090.4</ele>
        <time>2018-11-11T15:01:31Z</time>
      </trkpt>
      <trkpt lat="42.854729" lon="0.769193">
        <ele>1088.7</ele>
        <time>2018-11-11T15:01:41Z</time>
      </trkpt>
      <trkpt lat="42.854800" lon="0.769082">
        <ele>1087.5</ele>
        <time>2018-11-11T15:01:50Z</time>
      </trkpt>
      <trkpt lat="42.854866" lon="0.768978">
        <ele>1085.8</ele>
        <time>2018-11-11T15:01:59Z</time>
      </trkpt>
      <trkpt lat="42.854923" lon="0.768855">
        <ele>1084.2</ele>
        <time>2018-11-11T15:02:08Z</time>
      </trkpt>
      <trkpt lat="42.854999" lon="0.768772">
        <ele>1081.6</ele>
        <time>2018-11-11T15:02:17Z</time>
      </trkpt>
      <trkpt lat="42.855091" lon="0.768650">
        <ele>1078.8</ele>
        <time>2018-11-11T15:02:28Z</time>
      </trkpt>
      <trkpt lat="42.855172" lon="0.768551">
        <ele>1076.6</ele>
        <time>2018-11-11T15:02:38Z</time>
      </trkpt>
      <trkpt lat="42.855249" lon="0.768461">
        <ele>1074.5</ele>
        <time>2018-11-11T15:02:47Z</time>
      </trkpt>
      <trkpt lat="42.855319" lon="0.768298">
        <ele>1072.1</ele>
        <time>2018-11-11T15:02:59Z</time>
      </trkpt>
      <trkpt lat="42.855373" lon="0.768175">
        <ele>1070.3</ele>
        <time>2018-11-11T15:03:10Z</time>
      </trkpt>
      <trkpt lat="42.855459" lon="0.768046">
        <ele>1068.8</ele>
        <time>2018-11-11T15:03:22Z</time>
      </trkpt>
      <trkpt lat="42.855496" lon="0.767929">
        <ele>1067.4</ele>
        <time>2018-11-11T15:03:31Z</time>
      </trkpt>
      <trkpt lat="42.855531" lon="0.767785">
        <ele>1065.8</ele>
        <time>2018-11-11T15:03:40Z</time>
      </trkpt>
      <trkpt lat="42.855588" lon="0.767660">
        <ele>1063.7</ele>
        <time>2018-11-11T15:03:51Z</time>
      </trkpt>
      <trkpt lat="42.855619" lon="0.767524">
        <ele>1061.3</ele>
        <time>2018-11-11T15:04:00Z</time>
      </trkpt>
      <trkpt lat="42.855667" lon="0.767374">
        <ele>1057.8</ele>
        <time>2018-11-11T15:04:11Z</time>
      </trkpt>
      <trkpt lat="42.855710" lon="0.767219">
        <ele>1054.4</ele>
        <time>2018-11-11T15:04:21Z</time>
      </trkpt>
      <trkpt lat="42.855783" lon="0.767063">
        <ele>1050.8</ele>
        <time>2018-11-11T15:04:33Z</time>
      </trkpt>
      <trkpt lat="42.855836" lon="0.766917">
        <ele>1048.7</ele>
        <time>2018-11-11T15:04:42Z</time>
      </trkpt>
      <trkpt lat="42.855896" lon="0.766774">
        <ele>1046.1</ele>
        <time>2018-11-11T15:04:52Z</time>
      </trkpt>
      <trkpt lat="42.855957" lon="0.766633">
        <ele>1043.7</ele>
        <time>2018-11-11T15:05:03Z</time>
      </trkpt>
      <trkpt lat="42.856001" lon="0.766477">
        <ele>1040.4</ele>
        <time>2018-11-11T15:05:15Z</time>
      </trkpt>
      <trkpt lat="42.856064" lon="0.766345">
        <ele>1036.7</ele>
        <time>2018-11-11T15:05:27Z</time>
      </trkpt>
      <trkpt lat="42.856086" lon="0.766221">
        <ele>1033.3</ele>
        <time>2018-11-11T15:05:37Z</time>
      </trkpt>
      <trkpt lat="42.856013" lon="0.766251">
        <ele>1029.4</ele>
        <time>2018-11-11T15:05:51Z</time>
      </trkpt>
      <trkpt lat="42.855880" lon="0.766273">
        <ele>1026.6</ele>
        <time>2018-11-11T15:06:04Z</time>
      </trkpt>
      <trkpt lat="42.855781" lon="0.766322">
        <ele>1023.9</ele>
        <time>2018-11-11T15:06:15Z</time>
      </trkpt>
      <trkpt lat="42.855647" lon="0.766350">
        <ele>1019.6</ele>
        <time>2018-11-11T15:06:28Z</time>
      </trkpt>
      <trkpt lat="42.855511" lon="0.766386">
        <ele>1016.8</ele>
        <time>2018-11-11T15:06:38Z</time>
      </trkpt>
      <trkpt lat="42.855397" lon="0.766419">
        <ele>1014.1</ele>
        <time>2018-11-11T15:06:47Z</time>
      </trkpt>
      <trkpt lat="42.855253" lon="0.766457">
        <ele>1010.8</ele>
        <time>2018-11-11T15:06:59Z</time>
      </trkpt>
      <trkpt lat="42.855112" lon="0.766465">
        <ele>1008.3</ele>
        <time>2018-11-11T15:07:09Z</time>
      </trkpt>
      <trkpt lat="42.855011" lon="0.766446">
        <ele>1005.9</ele>
        <time>2018-11-11T15:07:18Z</time>
      </trkpt>
      <trkpt lat="42.854926" lon="0.766445">
        <ele>1002.8</ele>
        <time>2018-11-11T15:07:32Z</time>
      </trkpt>
      <trkpt lat="42.854886" lon="0.766341">
        <ele>999.8</ele>
        <time>2018-11-11T15:07:56Z</time>
      </trkpt>
      <trkpt lat="42.854923" lon="0.766186">
        <ele>996.0</ele>
        <time>2018-11-11T15:08:09Z</time>
      </trkpt>
      <trkpt lat="42.854980" lon="0.766009">
        <ele>992.6</ele>
        <time>2018-11-11T15:08:23Z</time>
      </trkpt>
      <trkpt lat="42.855052" lon="0.765863">
        <ele>988.7</ele>
        <time>2018-11-11T15:08:37Z</time>
      </trkpt>
      <trkpt lat="42.855072" lon="0.765723">
        <ele>985.3</ele>
        <time>2018-11-11T15:08:49Z</time>
      </trkpt>
      <trkpt lat="42.855099" lon="0.765579">
        <ele>982.1</ele>
        <time>2018-11-11T15:09:01Z</time>
      </trkpt>
      <trkpt lat="42.855164" lon="0.765460">
        <ele>979.2</ele>
        <time>2018-11-11T15:09:13Z</time>
      </trkpt>
      <trkpt lat="42.855245" lon="0.765319">
        <ele>976.2</ele>
        <time>2018-11-11T15:09:28Z</time>
      </trkpt>
      <trkpt lat="42.855315" lon="0.765186">
        <ele>973.1</ele>
        <time>2018-11-11T15:09:40Z</time>
      </trkpt>
      <trkpt lat="42.855357" lon="0.765043">
        <ele>969.7</ele>
        <time>2018-11-11T15:09:55Z</time>
      </trkpt>
      <trkpt lat="42.855410" lon="0.764873">
        <ele>967.3</ele>
        <time>2018-11-11T15:10:05Z</time>
      </trkpt>
      <trkpt lat="42.855472" lon="0.764859">
        <ele>964.8</ele>
        <time>2018-11-11T15:10:21Z</time>
      </trkpt>
      <trkpt lat="42.855478" lon="0.764680">
        <ele>962.7</ele>
        <time>2018-11-11T15:10:34Z</time>
      </trkpt>
      <trkpt lat="42.855526" lon="0.764526">
        <ele>960.5</ele>
        <time>2018-11-11T15:10:44Z</time>
      </trkpt>
      <trkpt lat="42.855540" lon="0.764383">
        <ele>958.7</ele>
        <time>2018-11-11T15:10:53Z</time>
      </trkpt>
      <trkpt lat="42.855579" lon="0.764256">
        <ele>956.4</ele>
        <time>2018-11-11T15:11:04Z</time>
      </trkpt>
      <trkpt lat="42.855665" lon="0.764146">
        <ele>953.8</ele>
        <time>2018-11-11T15:11:18Z</time>
      </trkpt>
      <trkpt lat="42.855745" lon="0.764075">
        <ele>952.2</ele>
        <time>2018-11-11T15:11:30Z</time>
      </trkpt>
      <trkpt lat="42.855826" lon="0.763975">
        <ele>949.9</ele>
        <time>2018-11-11T15:11:43Z</time>
      </trkpt>
      <trkpt lat="42.855898" lon="0.763868">
        <ele>947.4</ele>
        <time>2018-11-11T15:11:56Z</time>
      </trkpt>
      <trkpt lat="42.855959" lon="0.763805">
        <ele>945.2</ele>
        <time>2018-11-11T15:12:19Z</time>
      </trkpt>
      <trkpt lat="42.855955" lon="0.763846">
        <ele>943.8</ele>
        <time>2018-11-11T15:12:51Z</time>
      </trkpt>
      <trkpt lat="42.855995" lon="0.763784">
        <ele>943.1</ele>
        <time>2018-11-11T15:13:07Z</time>
      </trkpt>
      <trkpt lat="42.856045" lon="0.763593">
        <ele>940.2</ele>
        <time>2018-11-11T15:13:18Z</time>
      </trkpt>
      <trkpt lat="42.856115" lon="0.763438">
        <ele>937.3</ele>
        <time>2018-11-11T15:13:28Z</time>
      </trkpt>
      <trkpt lat="42.856139" lon="0.763303">
        <ele>935.0</ele>
        <time>2018-11-11T15:13:35Z</time>
      </trkpt>
      <trkpt lat="42.856156" lon="0.763137">
        <ele>931.7</ele>
        <time>2018-11-11T15:13:42Z</time>
      </trkpt>
      <trkpt lat="42.856170" lon="0.762977">
        <ele>928.5</ele>
        <time>2018-11-11T15:13:50Z</time>
      </trkpt>
      <trkpt lat="42.856188" lon="0.762856">
        <ele>925.9</ele>
        <time>2018-11-11T15:13:57Z</time>
      </trkpt>
      <trkpt lat="42.856239" lon="0.762821">
        <ele>922.1</ele>
        <time>2018-11-11T15:14:18Z</time>
      </trkpt>
      <trkpt lat="42.856215" lon="0.762849">
        <ele>922.0</ele>
        <time>2018-11-11T15:14:44Z</time>
      </trkpt>
      <trkpt lat="42.856249" lon="0.762867">
        <ele>922.0</ele>
        <time>2018-11-11T15:15:10Z</time>
      </trkpt>
      <trkpt lat="42.856327" lon="0.762766">
        <ele>921.2</ele>
        <time>2018-11-11T15:15:28Z</time>
      </trkpt>
      <trkpt lat="42.856379" lon="0.762646">
        <ele>919.7</ele>
        <time>2018-11-11T15:15:38Z</time>
      </trkpt>
      <trkpt lat="42.856471" lon="0.762578">
        <ele>917.9</ele>
        <time>2018-11-11T15:15:47Z</time>
      </trkpt>
      <trkpt lat="42.856540" lon="0.762494">
        <ele>916.2</ele>
        <time>2018-11-11T15:15:54Z</time>
      </trkpt>
      <trkpt lat="42.856596" lon="0.762392">
        <ele>914.2</ele>
        <time>2018-11-11T15:16:04Z</time>
      </trkpt>
      <trkpt lat="42.856670" lon="0.762286">
        <ele>912.1</ele>
        <time>2018-11-11T15:16:16Z</time>
      </trkpt>
      <trkpt lat="42.856735" lon="0.762154">
        <ele>909.3</ele>
        <time>2018-11-11T15:16:30Z</time>
      </trkpt>
      <trkpt lat="42.856811" lon="0.762036">
        <ele>907.2</ele>
        <time>2018-11-11T15:16:42Z</time>
      </trkpt>
      <trkpt lat="42.856886" lon="0.761928">
        <ele>904.7</ele>
        <time>2018-11-11T15:16:55Z</time>
      </trkpt>
      <trkpt lat="42.856938" lon="0.761818">
        <ele>901.7</ele>
        <time>2018-11-11T15:17:07Z</time>
      </trkpt>
      <trkpt lat="42.856990" lon="0.761709">
        <ele>899.1</ele>
        <time>2018-11-11T15:17:21Z</time>
      </trkpt>
      <trkpt lat="42.857049" lon="0.761576">
        <ele>895.4</ele>
        <time>2018-11-11T15:17:38Z</time>
      </trkpt>
      <trkpt lat="42.857148" lon="0.761431">
        <ele>891.0</ele>
        <time>2018-11-11T15:17:53Z</time>
      </trkpt>
      <trkpt lat="42.857205" lon="0.761314">
        <ele>888.8</ele>
        <time>2018-11-11T15:18:03Z</time>
      </trkpt>
      <trkpt lat="42.857293" lon="0.761224">
        <ele>885.2</ele>
        <time>2018-11-11T15:18:15Z</time>
      </trkpt>
      <trkpt lat="42.857357" lon="0.761133">
        <ele>882.0</ele>
        <time>2018-11-11T15:18:28Z</time>
      </trkpt>
      <trkpt lat="42.857405" lon="0.761001">
        <ele>878.2</ele>
        <time>2018-11-11T15:18:41Z</time>
      </trkpt>
      <trkpt lat="42.857439" lon="0.760899">
        <ele>875.3</ele>
        <time>2018-11-11T15:18:53Z</time>
      </trkpt>
      <trkpt lat="42.857472" lon="0.760764">
        <ele>871.4</ele>
        <time>2018-11-11T15:19:06Z</time>
      </trkpt>
      <trkpt lat="42.857529" lon="0.760633">
        <ele>867.9</ele>
        <time>2018-11-11T15:19:19Z</time>
      </trkpt>
      <trkpt lat="42.857591" lon="0.760502">
        <ele>864.4</ele>
        <time>2018-11-11T15:19:31Z</time>
      </trkpt>
      <trkpt lat="42.857664" lon="0.760365">
        <ele>861.4</ele>
        <time>2018-11-11T15:19:43Z</time>
      </trkpt>
      <trkpt lat="42.857743" lon="0.760249">
        <ele>857.8</ele>
        <time>2018-11-11T15:19:56Z</time>
      </trkpt>
      <trkpt lat="42.857819" lon="0.760142">
        <ele>854.1</ele>
        <time>2018-11-11T15:20:11Z</time>
      </trkpt>
      <trkpt lat="42.857899" lon="0.759999">
        <ele>850.7</ele>
        <time>2018-11-11T15:20:24Z</time>
      </trkpt>
      <trkpt lat="42.857938" lon="0.759864">
        <ele>847.0</ele>
        <time>2018-11-11T15:20:39Z</time>
      </trkpt>
      <trkpt lat="42.857956" lon="0.759695">
        <ele>842.7</ele>
        <time>2018-11-11T15:20:53Z</time>
      </trkpt>
      <trkpt lat="42.857999" lon="0.759581">
        <ele>839.5</ele>
        <time>2018-11-11T15:21:08Z</time>
      </trkpt>
      <trkpt lat="42.858028" lon="0.759387">
        <ele>835.3</ele>
        <time>2018-11-11T15:21:23Z</time>
      </trkpt>
      <trkpt lat="42.858096" lon="0.759233">
        <ele>831.8</ele>
        <time>2018-11-11T15:21:37Z</time>
      </trkpt>
      <trkpt lat="42.858163" lon="0.759099">
        <ele>828.1</ele>
        <time>2018-11-11T15:21:50Z</time>
      </trkpt>
      <trkpt lat="42.858184" lon="0.758955">
        <ele>825.4</ele>
        <time>2018-11-11T15:22:02Z</time>
      </trkpt>
      <trkpt lat="42.858203" lon="0.758824">
        <ele>822.3</ele>
        <time>2018-11-11T15:22:13Z</time>
      </trkpt>
      <trkpt lat="42.858231" lon="0.758708">
        <ele>819.8</ele>
        <time>2018-11-11T15:22:23Z</time>
      </trkpt>
      <trkpt lat="42.858256" lon="0.758591">
        <ele>816.6</ele>
        <time>2018-11-11T15:22:36Z</time>
      </trkpt>
      <trkpt lat="42.858276" lon="0.758401">
        <ele>813.6</ele>
        <time>2018-11-11T15:22:49Z</time>
      </trkpt>
      <trkpt lat="42.858329" lon="0.758279">
        <ele>810.9</ele>
        <time>2018-11-11T15:23:00Z</time>
      </trkpt>
      <trkpt lat="42.858365" lon="0.758131">
        <ele>807.8</ele>
        <time>2018-11-11T15:23:12Z</time>
      </trkpt>
      <trkpt lat="42.858380" lon="0.757958">
        <ele>804.4</ele>
        <time>2018-11-11T15:23:25Z</time>
      </trkpt>
      <trkpt lat="42.858419" lon="0.757816">
        <ele>801.5</ele>
        <time>2018-11-11T15:23:38Z</time>
      </trkpt>
      <trkpt lat="42.858462" lon="0.757665">
        <ele>798.7</ele>
        <time>2018-11-11T15:23:50Z</time>
      </trkpt>
      <trkpt lat="42.858511" lon="0.757531">
        <ele>795.9</ele>
        <time>2018-11-11T15:24:01Z</time>
      </trkpt>
      <trkpt lat="42.858546" lon="0.757383">
        <ele>791.8</ele>
        <time>2018-11-11T15:24:15Z</time>
      </trkpt>
      <trkpt lat="42.858604" lon="0.757249">
        <ele>789.0</ele>
        <time>2018-11-11T15:24:25Z</time>
      </trkpt>
      <trkpt lat="42.858636" lon="0.757215">
        <ele>785.7</ele>
        <time>2018-11-11T15:24:44Z</time>
      </trkpt>
      <trkpt lat="42.858712" lon="0.757066">
        <ele>780.8</ele>
        <time>2018-11-11T15:27:28Z</time>
      </trkpt>
      <trkpt lat="42.858748" lon="0.756927">
        <ele>777.7</ele>
        <time>2018-11-11T15:27:39Z</time>
      </trkpt>
      <trkpt lat="42.858765" lon="0.756803">
        <ele>775.2</ele>
        <time>2018-11-11T15:27:48Z</time>
      </trkpt>
      <trkpt lat="42.858774" lon="0.756663">
        <ele>772.9</ele>
        <time>2018-11-11T15:27:57Z</time>
      </trkpt>
      <trkpt lat="42.858762" lon="0.756519">
        <ele>770.4</ele>
        <time>2018-11-11T15:28:06Z</time>
      </trkpt>
      <trkpt lat="42.858775" lon="0.756364">
        <ele>768.4</ele>
        <time>2018-11-11T15:28:16Z</time>
      </trkpt>
      <trkpt lat="42.858805" lon="0.756227">
        <ele>766.3</ele>
        <time>2018-11-11T15:28:26Z</time>
      </trkpt>
      <trkpt lat="42.858813" lon="0.756063">
        <ele>764.4</ele>
        <time>2018-11-11T15:28:36Z</time>
      </trkpt>
      <trkpt lat="42.858839" lon="0.755902">
        <ele>762.9</ele>
        <time>2018-11-11T15:28:45Z</time>
      </trkpt>
      <trkpt lat="42.858879" lon="0.755752">
        <ele>761.0</ele>
        <time>2018-11-11T15:28:54Z</time>
      </trkpt>
      <trkpt lat="42.858916" lon="0.755624">
        <ele>759.3</ele>
        <time>2018-11-11T15:29:03Z</time>
      </trkpt>
      <trkpt lat="42.858978" lon="0.755512">
        <ele>757.8</ele>
        <time>2018-11-11T15:29:13Z</time>
      </trkpt>
      <trkpt lat="42.859029" lon="0.755371">
        <ele>756.2</ele>
        <time>2018-11-11T15:29:23Z</time>
      </trkpt>
      <trkpt lat="42.859095" lon="0.755222">
        <ele>754.9</ele>
        <time>2018-11-11T15:29:34Z</time>
      </trkpt>
      <trkpt lat="42.859133" lon="0.755077">
        <ele>753.2</ele>
        <time>2018-11-11T15:29:43Z</time>
      </trkpt>
      <trkpt lat="42.859175" lon="0.754914">
        <ele>750.7</ele>
        <time>2018-11-11T15:29:53Z</time>
      </trkpt>
      <trkpt lat="42.859191" lon="0.754755">
        <ele>748.1</ele>
        <time>2018-11-11T15:30:03Z</time>
      </trkpt>
      <trkpt lat="42.859237" lon="0.754655">
        <ele>745.5</ele>
        <time>2018-11-11T15:30:11Z</time>
      </trkpt>
      <trkpt lat="42.859289" lon="0.754573">
        <ele>742.7</ele>
        <time>2018-11-11T15:30:27Z</time>
      </trkpt>
      <trkpt lat="42.859291" lon="0.754565">
        <ele>758.4</ele>
        <time>2018-11-11T15:30:28Z</time>
      </trkpt>
      <trkpt lat="42.859384" lon="0.754368">
        <ele>716.9</ele>
        <time>2018-11-11T15:31:27Z</time>
      </trkpt>
      <trkpt lat="42.859468" lon="0.754243">
        <ele>714.6</ele>
        <time>2018-11-11T15:31:38Z</time>
      </trkpt>
      <trkpt lat="42.859563" lon="0.754189">
        <ele>712.0</ele>
        <time>2018-11-11T15:31:50Z</time>
      </trkpt>
      <trkpt lat="42.859672" lon="0.754157">
        <ele>707.6</ele>
        <time>2018-11-11T15:32:32Z</time>
      </trkpt>
      <trkpt lat="42.859809" lon="0.754100">
        <ele>706.0</ele>
        <time>2018-11-11T15:32:45Z</time>
      </trkpt>
      <trkpt lat="42.859906" lon="0.754019">
        <ele>703.2</ele>
        <time>2018-11-11T15:32:55Z</time>
      </trkpt>
      <trkpt lat="42.859977" lon="0.753942">
        <ele>700.7</ele>
        <time>2018-11-11T15:33:05Z</time>
      </trkpt>
      <trkpt lat="42.860049" lon="0.753818">
        <ele>698.6</ele>
        <time>2018-11-11T15:33:15Z</time>
      </trkpt>
      <trkpt lat="42.860101" lon="0.753674">
        <ele>696.5</ele>
        <time>2018-11-11T15:33:25Z</time>
      </trkpt>
      <trkpt lat="42.860117" lon="0.753501">
        <ele>692.6</ele>
        <time>2018-11-11T15:33:38Z</time>
      </trkpt>
      <trkpt lat="42.860159" lon="0.753208">
        <ele>687.4</ele>
        <time>2018-11-11T15:34:01Z</time>
      </trkpt>
      <trkpt lat="42.860169" lon="0.753017">
        <ele>685.1</ele>
        <time>2018-11-11T15:34:14Z</time>
      </trkpt>
      <trkpt lat="42.860208" lon="0.752869">
        <ele>680.5</ele>
        <time>2018-11-11T15:34:26Z</time>
      </trkpt>
      <trkpt lat="42.860257" lon="0.752713">
        <ele>675.6</ele>
        <time>2018-11-11T15:34:41Z</time>
      </trkpt>
      <trkpt lat="42.860283" lon="0.752566">
        <ele>670.4</ele>
        <time>2018-11-11T15:34:58Z</time>
      </trkpt>
      <trkpt lat="42.860327" lon="0.752410">
        <ele>666.2</ele>
        <time>2018-11-11T15:35:15Z</time>
      </trkpt>
      <trkpt lat="42.860340" lon="0.752283">
        <ele>661.9</ele>
        <time>2018-11-11T15:35:28Z</time>
      </trkpt>
      <trkpt lat="42.860362" lon="0.752148">
        <ele>658.5</ele>
        <time>2018-11-11T15:35:40Z</time>
      </trkpt>
      <trkpt lat="42.860435" lon="0.751982">
        <ele>651.5</ele>
        <time>2018-11-11T15:36:10Z</time>
      </trkpt>
      <trkpt lat="42.860520" lon="0.751870">
        <ele>648.4</ele>
        <time>2018-11-11T15:36:22Z</time>
      </trkpt>
      <trkpt lat="42.860584" lon="0.751745">
        <ele>644.9</ele>
        <time>2018-11-11T15:36:35Z</time>
      </trkpt>
      <trkpt lat="42.860656" lon="0.751634">
        <ele>640.8</ele>
        <time>2018-11-11T15:36:52Z</time>
      </trkpt>
      <trkpt lat="42.860750" lon="0.751522">
        <ele>637.0</ele>
        <time>2018-11-11T15:37:07Z</time>
      </trkpt>
      <trkpt lat="42.860849" lon="0.751430">
        <ele>633.4</ele>
        <time>2018-11-11T15:37:22Z</time>
      </trkpt>
      <trkpt lat="42.860932" lon="0.751330">
        <ele>630.2</ele>
        <time>2018-11-11T15:37:35Z</time>
      </trkpt>
      <trkpt lat="42.861016" lon="0.751249">
        <ele>627.0</ele>
        <time>2018-11-11T15:37:50Z</time>
      </trkpt>
      <trkpt lat="42.861111" lon="0.751161">
        <ele>622.8</ele>
        <time>2018-11-11T15:38:08Z</time>
      </trkpt>
      <trkpt lat="42.861207" lon="0.751083">
        <ele>619.0</ele>
        <time>2018-11-11T15:38:23Z</time>
      </trkpt>
      <trkpt lat="42.861306" lon="0.751091">
        <ele>613.9</ele>
        <time>2018-11-11T15:39:05Z</time>
      </trkpt>
      <trkpt lat="42.861314" lon="0.751081">
        <ele>614.2</ele>
        <time>2018-11-11T15:39:52Z</time>
      </trkpt>
      <trkpt lat="42.861418" lon="0.751068">
        <ele>612.7</ele>
        <time>2018-11-11T15:40:06Z</time>
      </trkpt>
      <trkpt lat="42.861549" lon="0.751123">
        <ele>608.8</ele>
        <time>2018-11-11T15:40:23Z</time>
      </trkpt>
      <trkpt lat="42.861664" lon="0.751178">
        <ele>604.1</ele>
        <time>2018-11-11T15:40:42Z</time>
      </trkpt>
      <trkpt lat="42.861791" lon="0.751112">
        <ele>599.1</ele>
        <time>2018-11-11T15:41:02Z</time>
      </trkpt>
      <trkpt lat="42.861898" lon="0.751091">
        <ele>596.3</ele>
        <time>2018-11-11T15:41:15Z</time>
      </trkpt>
      <trkpt lat="42.861999" lon="0.751048">
        <ele>592.3</ele>
        <time>2018-11-11T15:41:30Z</time>
      </trkpt>
      <trkpt lat="42.862141" lon="0.751047">
        <ele>588.5</ele>
        <time>2018-11-11T15:41:46Z</time>
      </trkpt>
      <trkpt lat="42.862281" lon="0.751005">
        <ele>585.8</ele>
        <time>2018-11-11T15:41:59Z</time>
      </trkpt>
      <trkpt lat="42.862375" lon="0.750898">
        <ele>583.0</ele>
        <time>2018-11-11T15:42:11Z</time>
      </trkpt>
      <trkpt lat="42.862438" lon="0.750775">
        <ele>580.2</ele>
        <time>2018-11-11T15:42:24Z</time>
      </trkpt>
      <trkpt lat="42.862557" lon="0.750744">
        <ele>578.2</ele>
        <time>2018-11-11T15:42:38Z</time>
      </trkpt>
      <trkpt lat="42.862655" lon="0.750678">
        <ele>576.5</ele>
        <time>2018-11-11T15:42:50Z</time>
      </trkpt>
      <trkpt lat="42.862791" lon="0.750621">
        <ele>574.8</ele>
        <time>2018-11-11T15:43:02Z</time>
      </trkpt>
      <trkpt lat="42.862901" lon="0.750569">
        <ele>573.5</ele>
        <time>2018-11-11T15:43:12Z</time>
      </trkpt>
      <trkpt lat="42.862992" lon="0.750533">
        <ele>572.8</ele>
        <time>2018-11-11T15:43:22Z</time>
      </trkpt>
    </trkseg>
  </trk>
</gpx>

